source: subversion/applications/editors/osm-editor/020505_osm.gpx @ 34925

Last change on this file since 34925 was 664, checked in by nick, 14 years ago

Changed save/load to always 'OSM' mode; changed example GPX files

File size: 60.5 KB
Line 
1<!-- This data is copyright Nick Whitelegg and licenced under the
2     Creative Commons Licence (Attribution/ShareAlike) v2.0. -->
3<gpx version="1.0" creator="Hogweed Software Freemap::Components class" xmlns="http://www.topografix.com/GPX/1/0">
4<wpt lat="51.0837" lon="-1.98725">
5<name>001</name>
6<type>car park</type>
7</wpt>
8<wpt lat="51.0828" lon="-1.97441">
9<name>003</name>
10<type>waypoint</type>
11</wpt>
12<wpt lat="51.0828" lon="-1.97441">
13<name>004</name>
14<type>waypoint</type>
15</wpt>
16<wpt lat="51.0828" lon="-1.97441">
17<name>005</name>
18<type>waypoint</type>
19</wpt>
20<wpt lat="51.0837" lon="-1.96038">
21<name>BAVER</name>
22<type>church</type>
23</wpt>
24<wpt lat="51.0843" lon="-1.99959">
25<name>BOG</name>
26<type>caution</type>
27</wpt>
28<wpt lat="51.0832" lon="-1.98076">
29<name>DINTON</name>
30<type>village</type>
31</wpt>
32<wpt lat="51.0844" lon="-1.98826">
33<name>DTN</name>
34<type>church</type>
35</wpt>
36<wpt lat="51.0915" lon="-1.97094">
37<name>FIELD FM H</name>
38<type>farm</type>
39</wpt>
40<wpt lat="51.0925" lon="-2.01739">
41<name>MNR F</name>
42<type>farm</type>
43</wpt>
44<wpt lat="51.0857" lon="-1.97274">
45<name>MNR FMH</name>
46<type>farm</type>
47</wpt>
48<wpt lat="51.0896" lon="-2.01508">
49<name>SHILLS</name>
50<type>farm</type>
51</wpt>
52<wpt lat="51.0889" lon="-1.9758">
53<name>T</name>
54<type>waypoint</type>
55</wpt>
56<wpt lat="51.0907" lon="-2.01667">
57<name>TEF</name>
58<type>church</type>
59</wpt>
60<wpt lat="51.0906" lon="-2.01664">
61<name>TEF M</name>
62<type>village</type>
63</wpt>
64<trk>
65<number>0</number>
66<extensions>
67</extensions>
68<trkseg>
69<trkpt lat="51.0837" lon="-1.98724">
70<time>2005-05-02T14:04:13Z</time>
71</trkpt>
72<trkpt lat="51.0837" lon="-1.9872">
73<time>2005-05-02T14:04:39Z</time>
74</trkpt>
75<trkpt lat="51.0837" lon="-1.9872">
76<time>2005-05-02T14:05:08Z</time>
77</trkpt>
78<trkpt lat="51.0838" lon="-1.98722">
79<time>2005-05-02T14:06:37Z</time>
80</trkpt>
81<trkpt lat="51.0837" lon="-1.98722">
82<time>2005-05-02T14:07:05Z</time>
83</trkpt>
84<trkpt lat="51.0838" lon="-1.98711">
85<time>2005-05-02T14:07:46Z</time>
86</trkpt>
87<trkpt lat="51.084" lon="-1.98717">
88<time>2005-05-02T14:07:59Z</time>
89</trkpt>
90<trkpt lat="51.084" lon="-1.9873">
91<time>2005-05-02T14:08:07Z</time>
92</trkpt>
93<trkpt lat="51.084" lon="-1.9878">
94<time>2005-05-02T14:08:30Z</time>
95</trkpt>
96<trkpt lat="51.0841" lon="-1.98818">
97<time>2005-05-02T14:08:50Z</time>
98</trkpt>
99<trkpt lat="51.084" lon="-1.98844">
100<time>2005-05-02T14:09:31Z</time>
101</trkpt>
102<trkpt lat="51.0841" lon="-1.98848">
103<time>2005-05-02T14:09:54Z</time>
104</trkpt>
105<trkpt lat="51.084" lon="-1.98857">
106<time>2005-05-02T14:10:17Z</time>
107</trkpt>
108<trkpt lat="51.0841" lon="-1.98898">
109<time>2005-05-02T14:10:39Z</time>
110</trkpt>
111<trkpt lat="51.0841" lon="-1.98941">
112<time>2005-05-02T14:11:01Z</time>
113</trkpt>
114<trkpt lat="51.0841" lon="-1.98966">
115<time>2005-05-02T14:11:19Z</time>
116</trkpt>
117<trkpt lat="51.0842" lon="-1.99003">
118<time>2005-05-02T14:11:37Z</time>
119</trkpt>
120<trkpt lat="51.0842" lon="-1.99044">
121<time>2005-05-02T14:11:58Z</time>
122</trkpt>
123<trkpt lat="51.0843" lon="-1.99082">
124<time>2005-05-02T14:12:17Z</time>
125</trkpt>
126<trkpt lat="51.0844" lon="-1.99108">
127<time>2005-05-02T14:12:35Z</time>
128</trkpt>
129<trkpt lat="51.0846" lon="-1.99151">
130<time>2005-05-02T14:12:55Z</time>
131</trkpt>
132<trkpt lat="51.0847" lon="-1.99183">
133<time>2005-05-02T14:13:11Z</time>
134</trkpt>
135<trkpt lat="51.0848" lon="-1.99224">
136<time>2005-05-02T14:13:31Z</time>
137</trkpt>
138<trkpt lat="51.0849" lon="-1.9926">
139<time>2005-05-02T14:13:50Z</time>
140</trkpt>
141<trkpt lat="51.085" lon="-1.99267">
142<time>2005-05-02T14:14:08Z</time>
143</trkpt>
144<trkpt lat="51.085" lon="-1.9928">
145<time>2005-05-02T14:14:28Z</time>
146</trkpt>
147<trkpt lat="51.085" lon="-1.99282">
148<time>2005-05-02T14:14:33Z</time>
149</trkpt>
150<trkpt lat="51.0848" lon="-1.9931">
151<time>2005-05-02T14:14:54Z</time>
152</trkpt>
153<trkpt lat="51.0846" lon="-1.99314">
154<time>2005-05-02T14:15:11Z</time>
155</trkpt>
156<trkpt lat="51.0843" lon="-1.99325">
157<time>2005-05-02T14:15:33Z</time>
158</trkpt>
159<trkpt lat="51.0843" lon="-1.99327">
160<time>2005-05-02T14:15:40Z</time>
161</trkpt>
162<trkpt lat="51.084" lon="-1.9934">
163<time>2005-05-02T14:16:00Z</time>
164</trkpt>
165<trkpt lat="51.0838" lon="-1.9935">
166<time>2005-05-02T14:16:17Z</time>
167</trkpt>
168<trkpt lat="51.0838" lon="-1.99353">
169<time>2005-05-02T14:16:26Z</time>
170</trkpt>
171<trkpt lat="51.0838" lon="-1.99398">
172<time>2005-05-02T14:16:48Z</time>
173</trkpt>
174<trkpt lat="51.0838" lon="-1.9943">
175<time>2005-05-02T14:17:03Z</time>
176</trkpt>
177<trkpt lat="51.0839" lon="-1.99445">
178<time>2005-05-02T14:17:17Z</time>
179</trkpt>
180<trkpt lat="51.0839" lon="-1.99447">
181<time>2005-05-02T14:17:19Z</time>
182</trkpt>
183<trkpt lat="51.0838" lon="-1.99477">
184<time>2005-05-02T14:17:38Z</time>
185</trkpt>
186<trkpt lat="51.0838" lon="-1.99496">
187<time>2005-05-02T14:17:49Z</time>
188</trkpt>
189<trkpt lat="51.0839" lon="-1.99535">
190<time>2005-05-02T14:18:07Z</time>
191</trkpt>
192<trkpt lat="51.0839" lon="-1.99544">
193<time>2005-05-02T14:18:23Z</time>
194</trkpt>
195<trkpt lat="51.084" lon="-1.99582">
196<time>2005-05-02T14:18:43Z</time>
197</trkpt>
198<trkpt lat="51.084" lon="-1.99591">
199<time>2005-05-02T14:18:52Z</time>
200</trkpt>
201<trkpt lat="51.0841" lon="-1.99642">
202<time>2005-05-02T14:19:19Z</time>
203</trkpt>
204<trkpt lat="51.0842" lon="-1.99681">
205<time>2005-05-02T14:19:38Z</time>
206</trkpt>
207<trkpt lat="51.0842" lon="-1.99692">
208<time>2005-05-02T14:19:57Z</time>
209</trkpt>
210<trkpt lat="51.0842" lon="-1.99696">
211<time>2005-05-02T14:20:00Z</time>
212</trkpt>
213<trkpt lat="51.0842" lon="-1.99715">
214<time>2005-05-02T14:20:16Z</time>
215</trkpt>
216<trkpt lat="51.0842" lon="-1.99715">
217<time>2005-05-02T14:20:28Z</time>
218</trkpt>
219<trkpt lat="51.0844" lon="-1.99737">
220<time>2005-05-02T14:20:46Z</time>
221</trkpt>
222<trkpt lat="51.0847" lon="-1.99771">
223<time>2005-05-02T14:21:11Z</time>
224</trkpt>
225<trkpt lat="51.0849" lon="-1.99797">
226<time>2005-05-02T14:21:32Z</time>
227</trkpt>
228<trkpt lat="51.085" lon="-1.99805">
229<time>2005-05-02T14:21:47Z</time>
230</trkpt>
231<trkpt lat="51.0852" lon="-1.99816">
232<time>2005-05-02T14:22:04Z</time>
233</trkpt>
234<trkpt lat="51.0854" lon="-1.99833">
235<time>2005-05-02T14:22:23Z</time>
236</trkpt>
237<trkpt lat="51.0855" lon="-1.99842">
238<time>2005-05-02T14:22:32Z</time>
239</trkpt>
240<trkpt lat="51.0855" lon="-1.99844">
241<time>2005-05-02T14:22:35Z</time>
242</trkpt>
243<trkpt lat="51.0856" lon="-1.99861">
244<time>2005-05-02T14:22:54Z</time>
245</trkpt>
246<trkpt lat="51.0857" lon="-1.99874">
247<time>2005-05-02T14:23:16Z</time>
248</trkpt>
249<trkpt lat="51.0859" lon="-1.99898">
250<time>2005-05-02T14:23:38Z</time>
251</trkpt>
252<trkpt lat="51.0859" lon="-1.99913">
253<time>2005-05-02T14:24:06Z</time>
254</trkpt>
255<trkpt lat="51.0857" lon="-1.9987">
256<time>2005-05-02T14:24:32Z</time>
257</trkpt>
258<trkpt lat="51.0855" lon="-1.99838">
259<time>2005-05-02T14:24:53Z</time>
260</trkpt>
261<trkpt lat="51.0852" lon="-1.99812">
262<time>2005-05-02T14:25:12Z</time>
263</trkpt>
264<trkpt lat="51.0848" lon="-1.99775">
265<time>2005-05-02T14:25:41Z</time>
266</trkpt>
267<trkpt lat="51.0846" lon="-1.99754">
268<time>2005-05-02T14:26:00Z</time>
269</trkpt>
270<trkpt lat="51.0843" lon="-1.99728">
271<time>2005-05-02T14:26:22Z</time>
272</trkpt>
273<trkpt lat="51.0842" lon="-1.99726">
274<time>2005-05-02T14:26:27Z</time>
275</trkpt>
276<trkpt lat="51.0843" lon="-1.99767">
277<time>2005-05-02T14:26:47Z</time>
278</trkpt>
279<trkpt lat="51.0844" lon="-1.99825">
280<time>2005-05-02T14:27:12Z</time>
281</trkpt>
282<trkpt lat="51.0844" lon="-1.99861">
283<time>2005-05-02T14:27:34Z</time>
284</trkpt>
285<trkpt lat="51.0844" lon="-1.99917">
286<time>2005-05-02T14:28:09Z</time>
287</trkpt>
288<trkpt lat="51.0843" lon="-1.99962">
289<time>2005-05-02T14:28:49Z</time>
290</trkpt>
291<trkpt lat="51.0841" lon="-2.00001">
292<time>2005-05-02T14:29:11Z</time>
293</trkpt>
294<trkpt lat="51.084" lon="-2.00063">
295<time>2005-05-02T14:29:46Z</time>
296</trkpt>
297<trkpt lat="51.084" lon="-2.00104">
298<time>2005-05-02T14:30:08Z</time>
299</trkpt>
300<trkpt lat="51.0841" lon="-2.00136">
301<time>2005-05-02T14:30:27Z</time>
302</trkpt>
303<trkpt lat="51.0844" lon="-2.00168">
304<time>2005-05-02T14:30:47Z</time>
305</trkpt>
306<trkpt lat="51.0846" lon="-2.002">
307<time>2005-05-02T14:31:05Z</time>
308</trkpt>
309<trkpt lat="51.0847" lon="-2.00241">
310<time>2005-05-02T14:31:26Z</time>
311</trkpt>
312<trkpt lat="51.0847" lon="-2.00256">
313<time>2005-05-02T14:31:32Z</time>
314</trkpt>
315<trkpt lat="51.0848" lon="-2.00258">
316<time>2005-05-02T14:31:34Z</time>
317</trkpt>
318<trkpt lat="51.0848" lon="-2.00271">
319<time>2005-05-02T14:31:40Z</time>
320</trkpt>
321<trkpt lat="51.0849" lon="-2.00286">
322<time>2005-05-02T14:31:47Z</time>
323</trkpt>
324<trkpt lat="51.0849" lon="-2.00307">
325<time>2005-05-02T14:32:00Z</time>
326</trkpt>
327<trkpt lat="51.0849" lon="-2.00316">
328<time>2005-05-02T14:32:07Z</time>
329</trkpt>
330<trkpt lat="51.085" lon="-2.00344">
331<time>2005-05-02T14:32:22Z</time>
332</trkpt>
333<trkpt lat="51.0852" lon="-2.00385">
334<time>2005-05-02T14:32:43Z</time>
335</trkpt>
336<trkpt lat="51.0852" lon="-2.00389">
337<time>2005-05-02T14:32:47Z</time>
338</trkpt>
339<trkpt lat="51.0853" lon="-2.00398">
340<time>2005-05-02T14:32:56Z</time>
341</trkpt>
342<trkpt lat="51.0853" lon="-2.004">
343<time>2005-05-02T14:32:58Z</time>
344</trkpt>
345<trkpt lat="51.0854" lon="-2.00415">
346<time>2005-05-02T14:33:14Z</time>
347</trkpt>
348<trkpt lat="51.0855" lon="-2.00449">
349<time>2005-05-02T14:33:36Z</time>
350</trkpt>
351<trkpt lat="51.0856" lon="-2.00481">
352<time>2005-05-02T14:34:04Z</time>
353</trkpt>
354<trkpt lat="51.0857" lon="-2.00507">
355<time>2005-05-02T14:34:31Z</time>
356</trkpt>
357<trkpt lat="51.0858" lon="-2.00548">
358<time>2005-05-02T14:34:58Z</time>
359</trkpt>
360<trkpt lat="51.0859" lon="-2.00576">
361<time>2005-05-02T14:35:14Z</time>
362</trkpt>
363<trkpt lat="51.0859" lon="-2.00655">
364<time>2005-05-02T14:35:39Z</time>
365</trkpt>
366<trkpt lat="51.086" lon="-2.00728">
367<time>2005-05-02T14:36:10Z</time>
368</trkpt>
369<trkpt lat="51.0861" lon="-2.00747">
370<time>2005-05-02T14:36:26Z</time>
371</trkpt>
372<trkpt lat="51.0862" lon="-2.00797">
373<time>2005-05-02T14:37:23Z</time>
374</trkpt>
375<trkpt lat="51.0863" lon="-2.0081">
376<time>2005-05-02T14:37:38Z</time>
377</trkpt>
378<trkpt lat="51.0864" lon="-2.00822">
379<time>2005-05-02T14:39:16Z</time>
380</trkpt>
381<trkpt lat="51.0864" lon="-2.00825">
382<time>2005-05-02T14:39:33Z</time>
383</trkpt>
384<trkpt lat="51.0865" lon="-2.00865">
385<time>2005-05-02T14:39:53Z</time>
386</trkpt>
387<trkpt lat="51.0865" lon="-2.00876">
388<time>2005-05-02T14:39:58Z</time>
389</trkpt>
390<trkpt lat="51.0865" lon="-2.00882">
391<time>2005-05-02T14:40:02Z</time>
392</trkpt>
393<trkpt lat="51.0865" lon="-2.00921">
394<time>2005-05-02T14:40:20Z</time>
395</trkpt>
396<trkpt lat="51.0866" lon="-2.0096">
397<time>2005-05-02T14:40:38Z</time>
398</trkpt>
399<trkpt lat="51.0866" lon="-2.00975">
400<time>2005-05-02T14:40:46Z</time>
401</trkpt>
402<trkpt lat="51.0866" lon="-2.0099">
403<time>2005-05-02T14:40:54Z</time>
404</trkpt>
405<trkpt lat="51.0867" lon="-2.01007">
406<time>2005-05-02T14:41:02Z</time>
407</trkpt>
408<trkpt lat="51.0867" lon="-2.01031">
409<time>2005-05-02T14:41:13Z</time>
410</trkpt>
411<trkpt lat="51.0867" lon="-2.01061">
412<time>2005-05-02T14:41:26Z</time>
413</trkpt>
414<trkpt lat="51.0867" lon="-2.01088">
415<time>2005-05-02T14:41:41Z</time>
416</trkpt>
417<trkpt lat="51.0868" lon="-2.01123">
418<time>2005-05-02T14:41:58Z</time>
419</trkpt>
420<trkpt lat="51.0868" lon="-2.01155">
421<time>2005-05-02T14:42:17Z</time>
422</trkpt>
423<trkpt lat="51.0869" lon="-2.01211">
424<time>2005-05-02T14:43:33Z</time>
425</trkpt>
426<trkpt lat="51.0871" lon="-2.01191">
427<time>2005-05-02T14:43:41Z</time>
428</trkpt>
429<trkpt lat="51.0873" lon="-2.01228">
430<time>2005-05-02T14:43:53Z</time>
431</trkpt>
432<trkpt lat="51.0873" lon="-2.01262">
433<time>2005-05-02T14:44:16Z</time>
434</trkpt>
435<trkpt lat="51.0874" lon="-2.01282">
436<time>2005-05-02T14:44:46Z</time>
437</trkpt>
438<trkpt lat="51.0875" lon="-2.01307">
439<time>2005-05-02T14:45:14Z</time>
440</trkpt>
441<trkpt lat="51.0875" lon="-2.01305">
442<time>2005-05-02T14:45:50Z</time>
443</trkpt>
444<trkpt lat="51.0877" lon="-2.0132">
445<time>2005-05-02T14:46:09Z</time>
446</trkpt>
447<trkpt lat="51.0878" lon="-2.01346">
448<time>2005-05-02T14:46:28Z</time>
449</trkpt>
450<trkpt lat="51.0881" lon="-2.01357">
451<time>2005-05-02T14:46:45Z</time>
452</trkpt>
453<trkpt lat="51.0882" lon="-2.01374">
454<time>2005-05-02T14:47:00Z</time>
455</trkpt>
456<trkpt lat="51.0885" lon="-2.01391">
457<time>2005-05-02T14:47:21Z</time>
458</trkpt>
459<trkpt lat="51.0887" lon="-2.01404">
460<time>2005-05-02T14:47:38Z</time>
461</trkpt>
462<trkpt lat="51.0888" lon="-2.01402">
463<time>2005-05-02T14:47:55Z</time>
464</trkpt>
465<trkpt lat="51.0889" lon="-2.0141">
466<time>2005-05-02T14:48:15Z</time>
467</trkpt>
468<trkpt lat="51.0893" lon="-2.0143">
469<time>2005-05-02T14:48:37Z</time>
470</trkpt>
471<trkpt lat="51.0895" lon="-2.01445">
472<time>2005-05-02T14:48:51Z</time>
473</trkpt>
474<trkpt lat="51.0896" lon="-2.01464">
475<time>2005-05-02T14:49:03Z</time>
476</trkpt>
477<trkpt lat="51.0896" lon="-2.01468">
478<time>2005-05-02T14:49:07Z</time>
479</trkpt>
480<trkpt lat="51.0899" lon="-2.01453">
481<time>2005-05-02T14:49:29Z</time>
482</trkpt>
483<trkpt lat="51.0903" lon="-2.01447">
484<time>2005-05-02T14:50:00Z</time>
485</trkpt>
486<trkpt lat="51.0908" lon="-2.01473">
487<time>2005-05-02T14:50:23Z</time>
488</trkpt>
489<trkpt lat="51.091" lon="-2.01496">
490<time>2005-05-02T14:50:48Z</time>
491</trkpt>
492<trkpt lat="51.091" lon="-2.01507">
493<time>2005-05-02T14:51:08Z</time>
494</trkpt>
495<trkpt lat="51.091" lon="-2.01511">
496<time>2005-05-02T14:51:15Z</time>
497</trkpt>
498<trkpt lat="51.0909" lon="-2.01558">
499<time>2005-05-02T14:51:34Z</time>
500</trkpt>
501<trkpt lat="51.0908" lon="-2.01599">
502<time>2005-05-02T14:51:52Z</time>
503</trkpt>
504<trkpt lat="51.0907" lon="-2.0164">
505<time>2005-05-02T14:52:10Z</time>
506</trkpt>
507<trkpt lat="51.0906" lon="-2.01653">
508<time>2005-05-02T14:52:24Z</time>
509</trkpt>
510<trkpt lat="51.0906" lon="-2.01664">
511<time>2005-05-02T14:53:33Z</time>
512</trkpt>
513<trkpt lat="51.0906" lon="-2.01664">
514<time>2005-05-02T14:53:46Z</time>
515</trkpt>
516<trkpt lat="51.0907" lon="-2.0167">
517<time>2005-05-02T14:54:00Z</time>
518</trkpt>
519<trkpt lat="51.0911" lon="-2.01702">
520<time>2005-05-02T14:54:24Z</time>
521</trkpt>
522<trkpt lat="51.0913" lon="-2.01721">
523<time>2005-05-02T14:54:41Z</time>
524</trkpt>
525<trkpt lat="51.0915" lon="-2.01732">
526<time>2005-05-02T14:55:00Z</time>
527</trkpt>
528<trkpt lat="51.0918" lon="-2.01758">
529<time>2005-05-02T14:55:24Z</time>
530</trkpt>
531<trkpt lat="51.0921" lon="-2.01784">
532<time>2005-05-02T14:55:47Z</time>
533</trkpt>
534<trkpt lat="51.0922" lon="-2.01799">
535<time>2005-05-02T14:56:07Z</time>
536</trkpt>
537<trkpt lat="51.0923" lon="-2.01805">
538<time>2005-05-02T14:56:29Z</time>
539</trkpt>
540<trkpt lat="51.0926" lon="-2.01833">
541<time>2005-05-02T14:56:55Z</time>
542</trkpt>
543<trkpt lat="51.0927" lon="-2.01835">
544<time>2005-05-02T14:56:59Z</time>
545</trkpt>
546<trkpt lat="51.0929" lon="-2.0185">
547<time>2005-05-02T14:57:16Z</time>
548</trkpt>
549<trkpt lat="51.093" lon="-2.01863">
550<time>2005-05-02T14:57:22Z</time>
551</trkpt>
552<trkpt lat="51.093" lon="-2.01863">
553<time>2005-05-02T14:57:26Z</time>
554</trkpt>
555<trkpt lat="51.0933" lon="-2.0188">
556<time>2005-05-02T14:57:44Z</time>
557</trkpt>
558<trkpt lat="51.0934" lon="-2.01889">
559<time>2005-05-02T14:57:59Z</time>
560</trkpt>
561<trkpt lat="51.0935" lon="-2.01897">
562<time>2005-05-02T14:58:10Z</time>
563</trkpt>
564<trkpt lat="51.0936" lon="-2.01891">
565<time>2005-05-02T14:58:15Z</time>
566</trkpt>
567<trkpt lat="51.0937" lon="-2.01865">
568<time>2005-05-02T14:58:28Z</time>
569</trkpt>
570<trkpt lat="51.0937" lon="-2.0185">
571<time>2005-05-02T14:58:35Z</time>
572</trkpt>
573<trkpt lat="51.0937" lon="-2.01842">
574<time>2005-05-02T14:58:40Z</time>
575</trkpt>
576<trkpt lat="51.0938" lon="-2.01797">
577<time>2005-05-02T14:59:02Z</time>
578</trkpt>
579<trkpt lat="51.0939" lon="-2.0179">
580<time>2005-05-02T14:59:11Z</time>
581</trkpt>
582<trkpt lat="51.094" lon="-2.01786">
583<time>2005-05-02T14:59:20Z</time>
584</trkpt>
585<trkpt lat="51.094" lon="-2.01777">
586<time>2005-05-02T14:59:24Z</time>
587</trkpt>
588<trkpt lat="51.0941" lon="-2.01728">
589<time>2005-05-02T14:59:47Z</time>
590</trkpt>
591<trkpt lat="51.0941" lon="-2.01679">
592<time>2005-05-02T15:00:09Z</time>
593</trkpt>
594<trkpt lat="51.0942" lon="-2.01659">
595<time>2005-05-02T15:00:19Z</time>
596</trkpt>
597<trkpt lat="51.0943" lon="-2.01614">
598<time>2005-05-02T15:00:40Z</time>
599</trkpt>
600<trkpt lat="51.0944" lon="-2.01569">
601<time>2005-05-02T15:01:02Z</time>
602</trkpt>
603<trkpt lat="51.0944" lon="-2.01561">
604<time>2005-05-02T15:01:09Z</time>
605</trkpt>
606<trkpt lat="51.0945" lon="-2.01561">
607<time>2005-05-02T15:01:13Z</time>
608</trkpt>
609<trkpt lat="51.0947" lon="-2.01561">
610<time>2005-05-02T15:01:32Z</time>
611</trkpt>
612<trkpt lat="51.0949" lon="-2.01561">
613<time>2005-05-02T15:01:50Z</time>
614</trkpt>
615<trkpt lat="51.0953" lon="-2.01563">
616<time>2005-05-02T15:02:12Z</time>
617</trkpt>
618<trkpt lat="51.0954" lon="-2.01563">
619<time>2005-05-02T15:02:28Z</time>
620</trkpt>
621<trkpt lat="51.0956" lon="-2.01565">
622<time>2005-05-02T15:02:48Z</time>
623</trkpt>
624<trkpt lat="51.0959" lon="-2.01565">
625<time>2005-05-02T15:03:07Z</time>
626</trkpt>
627<trkpt lat="51.0961" lon="-2.01565">
628<time>2005-05-02T15:03:21Z</time>
629</trkpt>
630<trkpt lat="51.0961" lon="-2.01565">
631<time>2005-05-02T15:03:38Z</time>
632</trkpt>
633<trkpt lat="51.0963" lon="-2.01563">
634<time>2005-05-02T15:03:57Z</time>
635</trkpt>
636<trkpt lat="51.0966" lon="-2.01554">
637<time>2005-05-02T15:04:18Z</time>
638</trkpt>
639<trkpt lat="51.0967" lon="-2.01552">
640<time>2005-05-02T15:04:36Z</time>
641</trkpt>
642<trkpt lat="51.0967" lon="-2.01552">
643<time>2005-05-02T15:04:49Z</time>
644</trkpt>
645<trkpt lat="51.0968" lon="-2.01548">
646<time>2005-05-02T15:05:03Z</time>
647</trkpt>
648<trkpt lat="51.097" lon="-2.01541">
649<time>2005-05-02T15:05:20Z</time>
650</trkpt>
651<trkpt lat="51.0973" lon="-2.01533">
652<time>2005-05-02T15:05:40Z</time>
653</trkpt>
654<trkpt lat="51.0975" lon="-2.01526">
655<time>2005-05-02T15:05:53Z</time>
656</trkpt>
657<trkpt lat="51.0977" lon="-2.0152">
658<time>2005-05-02T15:06:07Z</time>
659</trkpt>
660<trkpt lat="51.0977" lon="-2.0152">
661<time>2005-05-02T15:06:23Z</time>
662</trkpt>
663<trkpt lat="51.0979" lon="-2.01513">
664<time>2005-05-02T15:06:37Z</time>
665</trkpt>
666<trkpt lat="51.0982" lon="-2.01505">
667<time>2005-05-02T15:06:59Z</time>
668</trkpt>
669<trkpt lat="51.0983" lon="-2.015">
670<time>2005-05-02T15:07:15Z</time>
671</trkpt>
672<trkpt lat="51.0985" lon="-2.01492">
673<time>2005-05-02T15:07:37Z</time>
674</trkpt>
675<trkpt lat="51.0988" lon="-2.01485">
676<time>2005-05-02T15:07:52Z</time>
677</trkpt>
678<trkpt lat="51.0988" lon="-2.01483">
679<time>2005-05-02T15:08:07Z</time>
680</trkpt>
681<trkpt lat="51.0989" lon="-2.01477">
682<time>2005-05-02T15:08:18Z</time>
683</trkpt>
684<trkpt lat="51.099" lon="-2.01473">
685<time>2005-05-02T15:08:29Z</time>
686</trkpt>
687<trkpt lat="51.0991" lon="-2.0147">
688<time>2005-05-02T15:08:43Z</time>
689</trkpt>
690<trkpt lat="51.0995" lon="-2.0146">
691<time>2005-05-02T15:09:06Z</time>
692</trkpt>
693<trkpt lat="51.0998" lon="-2.01449">
694<time>2005-05-02T15:09:30Z</time>
695</trkpt>
696<trkpt lat="51.1002" lon="-2.01438">
697<time>2005-05-02T15:09:55Z</time>
698</trkpt>
699<trkpt lat="51.1003" lon="-2.01436">
700<time>2005-05-02T15:10:11Z</time>
701</trkpt>
702<trkpt lat="51.1005" lon="-2.01428">
703<time>2005-05-02T15:10:31Z</time>
704</trkpt>
705<trkpt lat="51.1008" lon="-2.01417">
706<time>2005-05-02T15:10:53Z</time>
707</trkpt>
708<trkpt lat="51.101" lon="-2.01413">
709<time>2005-05-02T15:11:11Z</time>
710</trkpt>
711<trkpt lat="51.1012" lon="-2.01406">
712<time>2005-05-02T15:11:27Z</time>
713</trkpt>
714<trkpt lat="51.1014" lon="-2.01397">
715<time>2005-05-02T15:11:47Z</time>
716</trkpt>
717<trkpt lat="51.1017" lon="-2.01389">
718<time>2005-05-02T15:12:09Z</time>
719</trkpt>
720<trkpt lat="51.1021" lon="-2.01378">
721<time>2005-05-02T15:12:32Z</time>
722</trkpt>
723<trkpt lat="51.1023" lon="-2.01367">
724<time>2005-05-02T15:12:53Z</time>
725</trkpt>
726<trkpt lat="51.1024" lon="-2.01365">
727<time>2005-05-02T15:13:07Z</time>
728</trkpt>
729<trkpt lat="51.1028" lon="-2.01352">
730<time>2005-05-02T15:13:32Z</time>
731</trkpt>
732<trkpt lat="51.103" lon="-2.01346">
733<time>2005-05-02T15:13:47Z</time>
734</trkpt>
735<trkpt lat="51.1033" lon="-2.01337">
736<time>2005-05-02T15:14:10Z</time>
737</trkpt>
738<trkpt lat="51.1036" lon="-2.01327">
739<time>2005-05-02T15:14:28Z</time>
740</trkpt>
741<trkpt lat="51.1039" lon="-2.01316">
742<time>2005-05-02T15:14:50Z</time>
743</trkpt>
744<trkpt lat="51.1042" lon="-2.01305">
745<time>2005-05-02T15:15:11Z</time>
746</trkpt>
747<trkpt lat="51.1043" lon="-2.01297">
748<time>2005-05-02T15:15:22Z</time>
749</trkpt>
750<trkpt lat="51.1044" lon="-2.01299">
751<time>2005-05-02T15:15:24Z</time>
752</trkpt>
753<trkpt lat="51.1045" lon="-2.01299">
754<time>2005-05-02T15:15:28Z</time>
755</trkpt>
756<trkpt lat="51.1046" lon="-2.01299">
757<time>2005-05-02T15:15:31Z</time>
758</trkpt>
759<trkpt lat="51.1046" lon="-2.0129">
760<time>2005-05-02T15:15:38Z</time>
761</trkpt>
762<trkpt lat="51.1047" lon="-2.01284">
763<time>2005-05-02T15:15:48Z</time>
764</trkpt>
765<trkpt lat="51.1047" lon="-2.01284">
766<time>2005-05-02T15:15:53Z</time>
767</trkpt>
768<trkpt lat="51.1048" lon="-2.01277">
769<time>2005-05-02T15:16:00Z</time>
770</trkpt>
771<trkpt lat="51.1049" lon="-2.01275">
772<time>2005-05-02T15:16:06Z</time>
773</trkpt>
774<trkpt lat="51.105" lon="-2.01271">
775<time>2005-05-02T15:16:16Z</time>
776</trkpt>
777<trkpt lat="51.1052" lon="-2.01269">
778<time>2005-05-02T15:16:55Z</time>
779</trkpt>
780<trkpt lat="51.1053" lon="-2.01267">
781<time>2005-05-02T15:17:10Z</time>
782</trkpt>
783<trkpt lat="51.1053" lon="-2.01262">
784<time>2005-05-02T15:17:27Z</time>
785</trkpt>
786<trkpt lat="51.1057" lon="-2.01254">
787<time>2005-05-02T15:17:59Z</time>
788</trkpt>
789<trkpt lat="51.1059" lon="-2.01249">
790<time>2005-05-02T15:18:16Z</time>
791</trkpt>
792<trkpt lat="51.1061" lon="-2.01243">
793<time>2005-05-02T15:18:29Z</time>
794</trkpt>
795<trkpt lat="51.1065" lon="-2.01232">
796<time>2005-05-02T15:19:07Z</time>
797</trkpt>
798<trkpt lat="51.1067" lon="-2.01222">
799<time>2005-05-02T15:19:26Z</time>
800</trkpt>
801<trkpt lat="51.1068" lon="-2.01215">
802<time>2005-05-02T15:19:40Z</time>
803</trkpt>
804<trkpt lat="51.1071" lon="-2.01209">
805<time>2005-05-02T15:19:59Z</time>
806</trkpt>
807<trkpt lat="51.1072" lon="-2.01198">
808<time>2005-05-02T15:20:25Z</time>
809</trkpt>
810<trkpt lat="51.1074" lon="-2.01187">
811<time>2005-05-02T15:20:47Z</time>
812</trkpt>
813<trkpt lat="51.1077" lon="-2.01179">
814<time>2005-05-02T15:21:07Z</time>
815</trkpt>
816<trkpt lat="51.1078" lon="-2.01174">
817<time>2005-05-02T15:21:21Z</time>
818</trkpt>
819<trkpt lat="51.108" lon="-2.0117">
820<time>2005-05-02T15:21:40Z</time>
821</trkpt>
822<trkpt lat="51.1082" lon="-2.01166">
823<time>2005-05-02T15:21:55Z</time>
824</trkpt>
825<trkpt lat="51.1086" lon="-2.01159">
826<time>2005-05-02T15:22:31Z</time>
827</trkpt>
828<trkpt lat="51.1087" lon="-2.01153">
829<time>2005-05-02T15:22:39Z</time>
830</trkpt>
831<trkpt lat="51.109" lon="-2.0114">
832<time>2005-05-02T15:22:56Z</time>
833</trkpt>
834<trkpt lat="51.1093" lon="-2.01125">
835<time>2005-05-02T15:23:18Z</time>
836</trkpt>
837<trkpt lat="51.1095" lon="-2.01114">
838<time>2005-05-02T15:23:38Z</time>
839</trkpt>
840<trkpt lat="51.1097" lon="-2.01104">
841<time>2005-05-02T15:23:54Z</time>
842</trkpt>
843<trkpt lat="51.1098" lon="-2.01099">
844<time>2005-05-02T15:24:04Z</time>
845</trkpt>
846<trkpt lat="51.1098" lon="-2.01099">
847<time>2005-05-02T15:24:06Z</time>
848</trkpt>
849<trkpt lat="51.1099" lon="-2.01097">
850<time>2005-05-02T15:24:12Z</time>
851</trkpt>
852<trkpt lat="51.11" lon="-2.01086">
853<time>2005-05-02T15:24:21Z</time>
854</trkpt>
855<trkpt lat="51.1101" lon="-2.01086">
856<time>2005-05-02T15:24:33Z</time>
857</trkpt>
858<trkpt lat="51.1102" lon="-2.01082">
859<time>2005-05-02T15:24:49Z</time>
860</trkpt>
861<trkpt lat="51.1102" lon="-2.0108">
862<time>2005-05-02T15:25:09Z</time>
863</trkpt>
864<trkpt lat="51.1104" lon="-2.01071">
865<time>2005-05-02T15:25:29Z</time>
866</trkpt>
867<trkpt lat="51.1106" lon="-2.01061">
868<time>2005-05-02T15:25:45Z</time>
869</trkpt>
870<trkpt lat="51.1109" lon="-2.01048">
871<time>2005-05-02T15:26:10Z</time>
872</trkpt>
873<trkpt lat="51.1109" lon="-2.01048">
874<time>2005-05-02T15:26:27Z</time>
875</trkpt>
876<trkpt lat="51.1111" lon="-2.01043">
877<time>2005-05-02T15:26:41Z</time>
878</trkpt>
879<trkpt lat="51.1112" lon="-2.01037">
880<time>2005-05-02T15:27:13Z</time>
881</trkpt>
882<trkpt lat="51.1115" lon="-2.01028">
883<time>2005-05-02T15:27:34Z</time>
884</trkpt>
885<trkpt lat="51.1116" lon="-2.01022">
886<time>2005-05-02T15:27:53Z</time>
887</trkpt>
888<trkpt lat="51.1118" lon="-2.01016">
889<time>2005-05-02T15:28:17Z</time>
890</trkpt>
891<trkpt lat="51.1121" lon="-2.01005">
892<time>2005-05-02T15:28:38Z</time>
893</trkpt>
894<trkpt lat="51.1123" lon="-2.00998">
895<time>2005-05-02T15:28:55Z</time>
896</trkpt>
897<trkpt lat="51.1124" lon="-2.00994">
898<time>2005-05-02T15:29:13Z</time>
899</trkpt>
900<trkpt lat="51.1125" lon="-2.00992">
901<time>2005-05-02T15:29:47Z</time>
902</trkpt>
903<trkpt lat="51.1126" lon="-2.00988">
904<time>2005-05-02T15:30:06Z</time>
905</trkpt>
906<trkpt lat="51.1127" lon="-2.00985">
907<time>2005-05-02T15:30:36Z</time>
908</trkpt>
909<trkpt lat="51.1129" lon="-2.00985">
910<time>2005-05-02T15:30:53Z</time>
911</trkpt>
912<trkpt lat="51.1129" lon="-2.00979">
913<time>2005-05-02T15:31:26Z</time>
914</trkpt>
915<trkpt lat="51.1129" lon="-2.00979">
916<time>2005-05-02T15:31:58Z</time>
917</trkpt>
918<trkpt lat="51.1129" lon="-2.0096">
919<time>2005-05-02T15:32:14Z</time>
920</trkpt>
921<trkpt lat="51.113" lon="-2.00923">
922<time>2005-05-02T15:32:32Z</time>
923</trkpt>
924<trkpt lat="51.1129" lon="-2.0091">
925<time>2005-05-02T15:32:55Z</time>
926</trkpt>
927<trkpt lat="51.113" lon="-2.00908">
928<time>2005-05-02T15:33:50Z</time>
929</trkpt>
930<trkpt lat="51.113" lon="-2.0091">
931<time>2005-05-02T15:34:26Z</time>
932</trkpt>
933<trkpt lat="51.1129" lon="-2.00913">
934<time>2005-05-02T15:35:39Z</time>
935</trkpt>
936<trkpt lat="51.113" lon="-2.0091">
937<time>2005-05-02T15:43:17Z</time>
938</trkpt>
939<trkpt lat="51.1129" lon="-2.00913">
940<time>2005-05-02T15:45:32Z</time>
941</trkpt>
942<trkpt lat="51.113" lon="-2.00902">
943<time>2005-05-02T15:45:46Z</time>
944</trkpt>
945<trkpt lat="51.113" lon="-2.00848">
946<time>2005-05-02T15:46:09Z</time>
947</trkpt>
948<trkpt lat="51.113" lon="-2.00801">
949<time>2005-05-02T15:46:29Z</time>
950</trkpt>
951<trkpt lat="51.1131" lon="-2.00758">
952<time>2005-05-02T15:46:47Z</time>
953</trkpt>
954<trkpt lat="51.1131" lon="-2.00702">
955<time>2005-05-02T15:47:09Z</time>
956</trkpt>
957<trkpt lat="51.1131" lon="-2.00651">
958<time>2005-05-02T15:47:30Z</time>
959</trkpt>
960<trkpt lat="51.1132" lon="-2.00604">
961<time>2005-05-02T15:47:51Z</time>
962</trkpt>
963<trkpt lat="51.1132" lon="-2.00578">
964<time>2005-05-02T15:48:03Z</time>
965</trkpt>
966<trkpt lat="51.1131" lon="-2.00511">
967<time>2005-05-02T15:48:29Z</time>
968</trkpt>
969<trkpt lat="51.1132" lon="-2.00458">
970<time>2005-05-02T15:48:51Z</time>
971</trkpt>
972<trkpt lat="51.1132" lon="-2.0041">
973<time>2005-05-02T15:49:10Z</time>
974</trkpt>
975<trkpt lat="51.1132" lon="-2.00372">
976<time>2005-05-02T15:49:27Z</time>
977</trkpt>
978<trkpt lat="51.1132" lon="-2.00325">
979<time>2005-05-02T15:49:48Z</time>
980</trkpt>
981<trkpt lat="51.1132" lon="-2.00286">
982<time>2005-05-02T15:50:05Z</time>
983</trkpt>
984<trkpt lat="51.1132" lon="-2.00265">
985<time>2005-05-02T15:50:21Z</time>
986</trkpt>
987<trkpt lat="51.1132" lon="-2.00217">
988<time>2005-05-02T15:50:41Z</time>
989</trkpt>
990<trkpt lat="51.1132" lon="-2.00174">
991<time>2005-05-02T15:50:59Z</time>
992</trkpt>
993<trkpt lat="51.1131" lon="-2.00119">
994<time>2005-05-02T15:51:22Z</time>
995</trkpt>
996<trkpt lat="51.1131" lon="-2.00101">
997<time>2005-05-02T15:51:32Z</time>
998</trkpt>
999<trkpt lat="51.113" lon="-2.00097">
1000<time>2005-05-02T15:51:47Z</time>
1001</trkpt>
1002<trkpt lat="51.113" lon="-2.00099">
1003<time>2005-05-02T15:52:13Z</time>
1004</trkpt>
1005<trkpt lat="51.113" lon="-2.00099">
1006<time>2005-05-02T15:52:14Z</time>
1007</trkpt>
1008<trkpt lat="51.1131" lon="-2.00091">
1009<time>2005-05-02T15:52:18Z</time>
1010</trkpt>
1011<trkpt lat="51.113" lon="-2.0005">
1012<time>2005-05-02T15:52:39Z</time>
1013</trkpt>
1014<trkpt lat="51.113" lon="-2.00022">
1015<time>2005-05-02T15:52:55Z</time>
1016</trkpt>
1017<trkpt lat="51.113" lon="-2.00018">
1018<time>2005-05-02T15:53:09Z</time>
1019</trkpt>
1020<trkpt lat="51.113" lon="-2.00007">
1021<time>2005-05-02T15:53:24Z</time>
1022</trkpt>
1023<trkpt lat="51.113" lon="-2.00003">
1024<time>2005-05-02T15:53:38Z</time>
1025</trkpt>
1026<trkpt lat="51.113" lon="-2.00001">
1027<time>2005-05-02T15:53:58Z</time>
1028</trkpt>
1029<trkpt lat="51.1129" lon="-1.99973">
1030<time>2005-05-02T15:54:20Z</time>
1031</trkpt>
1032<trkpt lat="51.1129" lon="-1.9996">
1033<time>2005-05-02T15:54:26Z</time>
1034</trkpt>
1035<trkpt lat="51.1128" lon="-1.99923">
1036<time>2005-05-02T15:54:45Z</time>
1037</trkpt>
1038<trkpt lat="51.1128" lon="-1.99895">
1039<time>2005-05-02T15:55:03Z</time>
1040</trkpt>
1041<trkpt lat="51.1128" lon="-1.99893">
1042<time>2005-05-02T15:55:17Z</time>
1043</trkpt>
1044<trkpt lat="51.1128" lon="-1.99846">
1045<time>2005-05-02T15:55:37Z</time>
1046</trkpt>
1047<trkpt lat="51.1129" lon="-1.99835">
1048<time>2005-05-02T15:55:55Z</time>
1049</trkpt>
1050<trkpt lat="51.1128" lon="-1.99829">
1051<time>2005-05-02T15:56:07Z</time>
1052</trkpt>
1053<trkpt lat="51.1129" lon="-1.99801">
1054<time>2005-05-02T15:57:07Z</time>
1055</trkpt>
1056<trkpt lat="51.1129" lon="-1.99754">
1057<time>2005-05-02T15:57:27Z</time>
1058</trkpt>
1059<trkpt lat="51.1129" lon="-1.99707">
1060<time>2005-05-02T15:57:47Z</time>
1061</trkpt>
1062<trkpt lat="51.1129" lon="-1.99666">
1063<time>2005-05-02T15:58:05Z</time>
1064</trkpt>
1065<trkpt lat="51.1129" lon="-1.99627">
1066<time>2005-05-02T15:58:24Z</time>
1067</trkpt>
1068<trkpt lat="51.113" lon="-1.99604">
1069<time>2005-05-02T15:58:38Z</time>
1070</trkpt>
1071<trkpt lat="51.1131" lon="-1.99541">
1072<time>2005-05-02T15:59:07Z</time>
1073</trkpt>
1074<trkpt lat="51.1132" lon="-1.99496">
1075<time>2005-05-02T15:59:35Z</time>
1076</trkpt>
1077<trkpt lat="51.1132" lon="-1.9949">
1078<time>2005-05-02T16:00:23Z</time>
1079</trkpt>
1080<trkpt lat="51.1133" lon="-1.99488">
1081<time>2005-05-02T16:01:04Z</time>
1082</trkpt>
1083<trkpt lat="51.1134" lon="-1.99486">
1084<time>2005-05-02T16:01:13Z</time>
1085</trkpt>
1086<trkpt lat="51.1134" lon="-1.99477">
1087<time>2005-05-02T16:01:19Z</time>
1088</trkpt>
1089<trkpt lat="51.1133" lon="-1.99451">
1090<time>2005-05-02T16:01:33Z</time>
1091</trkpt>
1092<trkpt lat="51.1132" lon="-1.99413">
1093<time>2005-05-02T16:01:59Z</time>
1094</trkpt>
1095<trkpt lat="51.1131" lon="-1.99376">
1096<time>2005-05-02T16:02:20Z</time>
1097</trkpt>
1098<trkpt lat="51.1129" lon="-1.99318">
1099<time>2005-05-02T16:02:44Z</time>
1100</trkpt>
1101<trkpt lat="51.1127" lon="-1.9925">
1102<time>2005-05-02T16:03:11Z</time>
1103</trkpt>
1104<trkpt lat="51.1126" lon="-1.9922">
1105<time>2005-05-02T16:03:29Z</time>
1106</trkpt>
1107<trkpt lat="51.1124" lon="-1.99183">
1108<time>2005-05-02T16:03:48Z</time>
1109</trkpt>
1110<trkpt lat="51.1122" lon="-1.99138">
1111<time>2005-05-02T16:04:13Z</time>
1112</trkpt>
1113<trkpt lat="51.112" lon="-1.9911">
1114<time>2005-05-02T16:04:30Z</time>
1115</trkpt>
1116<trkpt lat="51.112" lon="-1.99104">
1117<time>2005-05-02T16:04:48Z</time>
1118</trkpt>
1119<trkpt lat="51.1119" lon="-1.99084">
1120<time>2005-05-02T16:05:05Z</time>
1121</trkpt>
1122<trkpt lat="51.1117" lon="-1.9905">
1123<time>2005-05-02T16:05:26Z</time>
1124</trkpt>
1125<trkpt lat="51.1116" lon="-1.99037">
1126<time>2005-05-02T16:05:44Z</time>
1127</trkpt>
1128<trkpt lat="51.1115" lon="-1.99022">
1129<time>2005-05-02T16:06:04Z</time>
1130</trkpt>
1131<trkpt lat="51.1114" lon="-1.99001">
1132<time>2005-05-02T16:06:21Z</time>
1133</trkpt>
1134<trkpt lat="51.1113" lon="-1.98992">
1135<time>2005-05-02T16:07:10Z</time>
1136</trkpt>
1137<trkpt lat="51.1113" lon="-1.98992">
1138<time>2005-05-02T16:07:47Z</time>
1139</trkpt>
1140<trkpt lat="51.1113" lon="-1.98992">
1141<time>2005-05-02T16:08:14Z</time>
1142</trkpt>
1143<trkpt lat="51.1113" lon="-1.98986">
1144<time>2005-05-02T16:10:55Z</time>
1145</trkpt>
1146<trkpt lat="51.1112" lon="-1.98958">
1147<time>2005-05-02T16:11:12Z</time>
1148</trkpt>
1149<trkpt lat="51.111" lon="-1.98923">
1150<time>2005-05-02T16:11:34Z</time>
1151</trkpt>
1152<trkpt lat="51.1109" lon="-1.98893">
1153<time>2005-05-02T16:11:52Z</time>
1154</trkpt>
1155<trkpt lat="51.1108" lon="-1.98876">
1156<time>2005-05-02T16:12:11Z</time>
1157</trkpt>
1158<trkpt lat="51.1106" lon="-1.98857">
1159<time>2005-05-02T16:12:31Z</time>
1160</trkpt>
1161<trkpt lat="51.1106" lon="-1.98848">
1162<time>2005-05-02T16:12:49Z</time>
1163</trkpt>
1164<trkpt lat="51.1104" lon="-1.98814">
1165<time>2005-05-02T16:13:14Z</time>
1166</trkpt>
1167<trkpt lat="51.1101" lon="-1.98777">
1168<time>2005-05-02T16:13:38Z</time>
1169</trkpt>
1170<trkpt lat="51.1099" lon="-1.98743">
1171<time>2005-05-02T16:14:02Z</time>
1172</trkpt>
1173<trkpt lat="51.1098" lon="-1.9873">
1174<time>2005-05-02T16:14:18Z</time>
1175</trkpt>
1176<trkpt lat="51.1097" lon="-1.98722">
1177<time>2005-05-02T16:14:29Z</time>
1178</trkpt>
1179<trkpt lat="51.1096" lon="-1.98711">
1180<time>2005-05-02T16:14:33Z</time>
1181</trkpt>
1182<trkpt lat="51.1095" lon="-1.98705">
1183<time>2005-05-02T16:14:45Z</time>
1184</trkpt>
1185<trkpt lat="51.1094" lon="-1.98681">
1186<time>2005-05-02T16:14:56Z</time>
1187</trkpt>
1188<trkpt lat="51.1092" lon="-1.98659">
1189<time>2005-05-02T16:15:10Z</time>
1190</trkpt>
1191<trkpt lat="51.109" lon="-1.98625">
1192<time>2005-05-02T16:15:28Z</time>
1193</trkpt>
1194<trkpt lat="51.1088" lon="-1.98599">
1195<time>2005-05-02T16:15:48Z</time>
1196</trkpt>
1197<trkpt lat="51.1088" lon="-1.98591">
1198<time>2005-05-02T16:16:12Z</time>
1199</trkpt>
1200<trkpt lat="51.1087" lon="-1.98591">
1201<time>2005-05-02T16:16:46Z</time>
1202</trkpt>
1203<trkpt lat="51.1087" lon="-1.98589">
1204<time>2005-05-02T16:16:58Z</time>
1205</trkpt>
1206<trkpt lat="51.1087" lon="-1.98587">
1207<time>2005-05-02T16:17:19Z</time>
1208</trkpt>
1209<trkpt lat="51.1085" lon="-1.98572">
1210<time>2005-05-02T16:17:35Z</time>
1211</trkpt>
1212<trkpt lat="51.1083" lon="-1.98548">
1213<time>2005-05-02T16:17:55Z</time>
1214</trkpt>
1215<trkpt lat="51.1084" lon="-1.98548">
1216<time>2005-05-02T16:18:00Z</time>
1217</trkpt>
1218<trkpt lat="51.1082" lon="-1.98541">
1219<time>2005-05-02T16:18:15Z</time>
1220</trkpt>
1221<trkpt lat="51.1079" lon="-1.98539">
1222<time>2005-05-02T16:18:36Z</time>
1223</trkpt>
1224<trkpt lat="51.1075" lon="-1.98514">
1225<time>2005-05-02T16:19:03Z</time>
1226</trkpt>
1227<trkpt lat="51.1073" lon="-1.98488">
1228<time>2005-05-02T16:19:21Z</time>
1229</trkpt>
1230<trkpt lat="51.1072" lon="-1.98484">
1231<time>2005-05-02T16:19:40Z</time>
1232</trkpt>
1233<trkpt lat="51.1071" lon="-1.9846">
1234<time>2005-05-02T16:19:59Z</time>
1235</trkpt>
1236<trkpt lat="51.1071" lon="-1.98451">
1237<time>2005-05-02T16:20:04Z</time>
1238</trkpt>
1239<trkpt lat="51.1069" lon="-1.98391">
1240<time>2005-05-02T16:20:28Z</time>
1241</trkpt>
1242<trkpt lat="51.1068" lon="-1.98342">
1243<time>2005-05-02T16:20:54Z</time>
1244</trkpt>
1245<trkpt lat="51.1067" lon="-1.98297">
1246<time>2005-05-02T16:21:13Z</time>
1247</trkpt>
1248<trkpt lat="51.1065" lon="-1.98211">
1249<time>2005-05-02T16:21:47Z</time>
1250</trkpt>
1251<trkpt lat="51.1062" lon="-1.98144">
1252<time>2005-05-02T16:22:14Z</time>
1253</trkpt>
1254<trkpt lat="51.1061" lon="-1.98087">
1255<time>2005-05-02T16:22:45Z</time>
1256</trkpt>
1257<trkpt lat="51.1058" lon="-1.98016">
1258<time>2005-05-02T16:23:17Z</time>
1259</trkpt>
1260<trkpt lat="51.1057" lon="-1.97981">
1261<time>2005-05-02T16:23:38Z</time>
1262</trkpt>
1263<trkpt lat="51.1055" lon="-1.97932">
1264<time>2005-05-02T16:23:57Z</time>
1265</trkpt>
1266<trkpt lat="51.1052" lon="-1.97861">
1267<time>2005-05-02T16:24:38Z</time>
1268</trkpt>
1269<trkpt lat="51.1051" lon="-1.97829">
1270<time>2005-05-02T16:24:57Z</time>
1271</trkpt>
1272<trkpt lat="51.1051" lon="-1.97814">
1273<time>2005-05-02T16:25:19Z</time>
1274</trkpt>
1275<trkpt lat="51.1046" lon="-1.97715">
1276<time>2005-05-02T16:25:50Z</time>
1277</trkpt>
1278<trkpt lat="51.1043" lon="-1.97692">
1279<time>2005-05-02T16:26:24Z</time>
1280</trkpt>
1281<trkpt lat="51.1043" lon="-1.9766">
1282<time>2005-05-02T16:26:46Z</time>
1283</trkpt>
1284<trkpt lat="51.1042" lon="-1.9764">
1285<time>2005-05-02T16:27:06Z</time>
1286</trkpt>
1287<trkpt lat="51.1042" lon="-1.9763">
1288<time>2005-05-02T16:27:40Z</time>
1289</trkpt>
1290<trkpt lat="51.1041" lon="-1.97589">
1291<time>2005-05-02T16:27:57Z</time>
1292</trkpt>
1293<trkpt lat="51.1039" lon="-1.97533">
1294<time>2005-05-02T16:28:22Z</time>
1295</trkpt>
1296<trkpt lat="51.1038" lon="-1.97499">
1297<time>2005-05-02T16:28:57Z</time>
1298</trkpt>
1299<trkpt lat="51.1037" lon="-1.97462">
1300<time>2005-05-02T16:29:18Z</time>
1301</trkpt>
1302<trkpt lat="51.1035" lon="-1.97424">
1303<time>2005-05-02T16:29:38Z</time>
1304</trkpt>
1305<trkpt lat="51.1034" lon="-1.97389">
1306<time>2005-05-02T16:29:57Z</time>
1307</trkpt>
1308<trkpt lat="51.1033" lon="-1.97351">
1309<time>2005-05-02T16:30:17Z</time>
1310</trkpt>
1311<trkpt lat="51.1031" lon="-1.97314">
1312<time>2005-05-02T16:30:39Z</time>
1313</trkpt>
1314<trkpt lat="51.1029" lon="-1.97273">
1315<time>2005-05-02T16:31:00Z</time>
1316</trkpt>
1317<trkpt lat="51.1028" lon="-1.97235">
1318<time>2005-05-02T16:31:22Z</time>
1319</trkpt>
1320<trkpt lat="51.1027" lon="-1.9722">
1321<time>2005-05-02T16:31:39Z</time>
1322</trkpt>
1323<trkpt lat="51.1026" lon="-1.97187">
1324<time>2005-05-02T16:32:03Z</time>
1325</trkpt>
1326<trkpt lat="51.1025" lon="-1.97157">
1327<time>2005-05-02T16:32:20Z</time>
1328</trkpt>
1329<trkpt lat="51.1025" lon="-1.9713">
1330<time>2005-05-02T16:32:43Z</time>
1331</trkpt>
1332<trkpt lat="51.1024" lon="-1.97089">
1333<time>2005-05-02T16:33:03Z</time>
1334</trkpt>
1335<trkpt lat="51.1023" lon="-1.97031">
1336<time>2005-05-02T16:33:27Z</time>
1337</trkpt>
1338<trkpt lat="51.1023" lon="-1.97014">
1339<time>2005-05-02T16:33:48Z</time>
1340</trkpt>
1341<trkpt lat="51.1023" lon="-1.97012">
1342<time>2005-05-02T16:34:13Z</time>
1343</trkpt>
1344<trkpt lat="51.1023" lon="-1.96992">
1345<time>2005-05-02T16:36:29Z</time>
1346</trkpt>
1347<trkpt lat="51.1023" lon="-1.96951">
1348<time>2005-05-02T16:36:49Z</time>
1349</trkpt>
1350<trkpt lat="51.1023" lon="-1.96947">
1351<time>2005-05-02T16:36:51Z</time>
1352</trkpt>
1353<trkpt lat="51.1023" lon="-1.96909">
1354<time>2005-05-02T16:37:11Z</time>
1355</trkpt>
1356<trkpt lat="51.1022" lon="-1.96881">
1357<time>2005-05-02T16:37:35Z</time>
1358</trkpt>
1359<trkpt lat="51.1022" lon="-1.96836">
1360<time>2005-05-02T16:37:54Z</time>
1361</trkpt>
1362<trkpt lat="51.1022" lon="-1.9681">
1363<time>2005-05-02T16:38:11Z</time>
1364</trkpt>
1365<trkpt lat="51.1022" lon="-1.96818">
1366<time>2005-05-02T16:38:43Z</time>
1367</trkpt>
1368<trkpt lat="51.1022" lon="-1.96823">
1369<time>2005-05-02T16:38:53Z</time>
1370</trkpt>
1371<trkpt lat="51.1022" lon="-1.96838">
1372<time>2005-05-02T16:38:59Z</time>
1373</trkpt>
1374<trkpt lat="51.1023" lon="-1.969">
1375<time>2005-05-02T16:39:24Z</time>
1376</trkpt>
1377<trkpt lat="51.1023" lon="-1.96911">
1378<time>2005-05-02T16:39:40Z</time>
1379</trkpt>
1380<trkpt lat="51.1023" lon="-1.96964">
1381<time>2005-05-02T16:40:00Z</time>
1382</trkpt>
1383<trkpt lat="51.1023" lon="-1.97033">
1384<time>2005-05-02T16:40:25Z</time>
1385</trkpt>
1386<trkpt lat="51.1024" lon="-1.97104">
1387<time>2005-05-02T16:40:51Z</time>
1388</trkpt>
1389<trkpt lat="51.1025" lon="-1.97166">
1390<time>2005-05-02T16:41:14Z</time>
1391</trkpt>
1392<trkpt lat="51.1026" lon="-1.9722">
1393<time>2005-05-02T16:41:34Z</time>
1394</trkpt>
1395<trkpt lat="51.1029" lon="-1.97278">
1396<time>2005-05-02T16:41:58Z</time>
1397</trkpt>
1398<trkpt lat="51.1031" lon="-1.97325">
1399<time>2005-05-02T16:42:20Z</time>
1400</trkpt>
1401<trkpt lat="51.1033" lon="-1.97383">
1402<time>2005-05-02T16:42:46Z</time>
1403</trkpt>
1404<trkpt lat="51.1036" lon="-1.97443">
1405<time>2005-05-02T16:43:12Z</time>
1406</trkpt>
1407<trkpt lat="51.1038" lon="-1.97501">
1408<time>2005-05-02T16:43:35Z</time>
1409</trkpt>
1410<trkpt lat="51.104" lon="-1.97537">
1411<time>2005-05-02T16:43:52Z</time>
1412</trkpt>
1413<trkpt lat="51.1042" lon="-1.97604">
1414<time>2005-05-02T16:44:18Z</time>
1415</trkpt>
1416<trkpt lat="51.1043" lon="-1.97638">
1417<time>2005-05-02T16:44:35Z</time>
1418</trkpt>
1419<trkpt lat="51.1042" lon="-1.97642">
1420<time>2005-05-02T16:44:41Z</time>
1421</trkpt>
1422<trkpt lat="51.1038" lon="-1.97638">
1423<time>2005-05-02T16:45:06Z</time>
1424</trkpt>
1425<trkpt lat="51.1033" lon="-1.9763">
1426<time>2005-05-02T16:45:34Z</time>
1427</trkpt>
1428<trkpt lat="51.103" lon="-1.97623">
1429<time>2005-05-02T16:45:57Z</time>
1430</trkpt>
1431<trkpt lat="51.1026" lon="-1.97619">
1432<time>2005-05-02T16:46:21Z</time>
1433</trkpt>
1434<trkpt lat="51.1023" lon="-1.97599">
1435<time>2005-05-02T16:46:41Z</time>
1436</trkpt>
1437<trkpt lat="51.1019" lon="-1.9758">
1438<time>2005-05-02T16:47:11Z</time>
1439</trkpt>
1440<trkpt lat="51.1016" lon="-1.97563">
1441<time>2005-05-02T16:47:31Z</time>
1442</trkpt>
1443<trkpt lat="51.1013" lon="-1.97548">
1444<time>2005-05-02T16:47:50Z</time>
1445</trkpt>
1446<trkpt lat="51.1011" lon="-1.97533">
1447<time>2005-05-02T16:48:08Z</time>
1448</trkpt>
1449<trkpt lat="51.1008" lon="-1.9752">
1450<time>2005-05-02T16:48:25Z</time>
1451</trkpt>
1452<trkpt lat="51.1006" lon="-1.97496">
1453<time>2005-05-02T16:48:42Z</time>
1454</trkpt>
1455<trkpt lat="51.1006" lon="-1.97488">
1456<time>2005-05-02T16:48:46Z</time>
1457</trkpt>
1458<trkpt lat="51.1005" lon="-1.97464">
1459<time>2005-05-02T16:49:04Z</time>
1460</trkpt>
1461<trkpt lat="51.1005" lon="-1.97454">
1462<time>2005-05-02T16:49:16Z</time>
1463</trkpt>
1464<trkpt lat="51.1005" lon="-1.97447">
1465<time>2005-05-02T16:49:21Z</time>
1466</trkpt>
1467<trkpt lat="51.1002" lon="-1.97424">
1468<time>2005-05-02T16:49:43Z</time>
1469</trkpt>
1470<trkpt lat="51.0998" lon="-1.97408">
1471<time>2005-05-02T16:50:03Z</time>
1472</trkpt>
1473<trkpt lat="51.0995" lon="-1.97391">
1474<time>2005-05-02T16:50:23Z</time>
1475</trkpt>
1476<trkpt lat="51.0991" lon="-1.97376">
1477<time>2005-05-02T16:50:45Z</time>
1478</trkpt>
1479<trkpt lat="51.0988" lon="-1.97359">
1480<time>2005-05-02T16:51:06Z</time>
1481</trkpt>
1482<trkpt lat="51.0984" lon="-1.9734">
1483<time>2005-05-02T16:51:32Z</time>
1484</trkpt>
1485<trkpt lat="51.0981" lon="-1.97325">
1486<time>2005-05-02T16:51:53Z</time>
1487</trkpt>
1488<trkpt lat="51.0977" lon="-1.9731">
1489<time>2005-05-02T16:52:14Z</time>
1490</trkpt>
1491<trkpt lat="51.0974" lon="-1.97295">
1492<time>2005-05-02T16:52:35Z</time>
1493</trkpt>
1494<trkpt lat="51.0971" lon="-1.9728">
1495<time>2005-05-02T16:52:57Z</time>
1496</trkpt>
1497<trkpt lat="51.0967" lon="-1.97256">
1498<time>2005-05-02T16:53:21Z</time>
1499</trkpt>
1500<trkpt lat="51.0963" lon="-1.97237">
1501<time>2005-05-02T16:53:46Z</time>
1502</trkpt>
1503<trkpt lat="51.096" lon="-1.97222">
1504<time>2005-05-02T16:54:05Z</time>
1505</trkpt>
1506<trkpt lat="51.0957" lon="-1.97203">
1507<time>2005-05-02T16:54:28Z</time>
1508</trkpt>
1509<trkpt lat="51.0952" lon="-1.97175">
1510<time>2005-05-02T16:54:57Z</time>
1511</trkpt>
1512<trkpt lat="51.0949" lon="-1.97149">
1513<time>2005-05-02T16:55:20Z</time>
1514</trkpt>
1515<trkpt lat="51.0946" lon="-1.97125">
1516<time>2005-05-02T16:55:42Z</time>
1517</trkpt>
1518<trkpt lat="51.0943" lon="-1.97102">
1519<time>2005-05-02T16:56:04Z</time>
1520</trkpt>
1521<trkpt lat="51.094" lon="-1.9708">
1522<time>2005-05-02T16:56:26Z</time>
1523</trkpt>
1524<trkpt lat="51.0939" lon="-1.97072">
1525<time>2005-05-02T16:56:34Z</time>
1526</trkpt>
1527<trkpt lat="51.0938" lon="-1.97067">
1528<time>2005-05-02T16:56:41Z</time>
1529</trkpt>
1530<trkpt lat="51.0938" lon="-1.97069">
1531<time>2005-05-02T16:56:43Z</time>
1532</trkpt>
1533<trkpt lat="51.0938" lon="-1.97069">
1534<time>2005-05-02T16:57:05Z</time>
1535</trkpt>
1536<trkpt lat="51.0938" lon="-1.97065">
1537<time>2005-05-02T16:57:08Z</time>
1538</trkpt>
1539<trkpt lat="51.0936" lon="-1.97052">
1540<time>2005-05-02T16:57:22Z</time>
1541</trkpt>
1542<trkpt lat="51.0934" lon="-1.9705">
1543<time>2005-05-02T16:57:39Z</time>
1544</trkpt>
1545<trkpt lat="51.0931" lon="-1.9705">
1546<time>2005-05-02T16:57:59Z</time>
1547</trkpt>
1548<trkpt lat="51.0927" lon="-1.97048">
1549<time>2005-05-02T16:58:22Z</time>
1550</trkpt>
1551<trkpt lat="51.0924" lon="-1.97022">
1552<time>2005-05-02T16:58:44Z</time>
1553</trkpt>
1554<trkpt lat="51.0921" lon="-1.97007">
1555<time>2005-05-02T16:59:05Z</time>
1556</trkpt>
1557<trkpt lat="51.0921" lon="-1.97009">
1558<time>2005-05-02T16:59:23Z</time>
1559</trkpt>
1560<trkpt lat="51.0919" lon="-1.97016">
1561<time>2005-05-02T16:59:42Z</time>
1562</trkpt>
1563<trkpt lat="51.0917" lon="-1.97031">
1564<time>2005-05-02T17:00:01Z</time>
1565</trkpt>
1566<trkpt lat="51.0914" lon="-1.97052">
1567<time>2005-05-02T17:00:19Z</time>
1568</trkpt>
1569<trkpt lat="51.0912" lon="-1.97084">
1570<time>2005-05-02T17:00:41Z</time>
1571</trkpt>
1572<trkpt lat="51.0912" lon="-1.97095">
1573<time>2005-05-02T17:01:04Z</time>
1574</trkpt>
1575<trkpt lat="51.0911" lon="-1.97115">
1576<time>2005-05-02T17:01:30Z</time>
1577</trkpt>
1578<trkpt lat="51.0909" lon="-1.97157">
1579<time>2005-05-02T17:01:51Z</time>
1580</trkpt>
1581<trkpt lat="51.0908" lon="-1.97213">
1582<time>2005-05-02T17:02:15Z</time>
1583</trkpt>
1584<trkpt lat="51.0908" lon="-1.97273">
1585<time>2005-05-02T17:02:38Z</time>
1586</trkpt>
1587<trkpt lat="51.0907" lon="-1.97331">
1588<time>2005-05-02T17:03:00Z</time>
1589</trkpt>
1590<trkpt lat="51.0907" lon="-1.97338">
1591<time>2005-05-02T17:03:05Z</time>
1592</trkpt>
1593<trkpt lat="51.0907" lon="-1.97346">
1594<time>2005-05-02T17:03:09Z</time>
1595</trkpt>
1596<trkpt lat="51.0906" lon="-1.97353">
1597<time>2005-05-02T17:03:11Z</time>
1598</trkpt>
1599<trkpt lat="51.0907" lon="-1.97355">
1600<time>2005-05-02T17:03:16Z</time>
1601</trkpt>
1602<trkpt lat="51.0906" lon="-1.97374">
1603<time>2005-05-02T17:03:27Z</time>
1604</trkpt>
1605<trkpt lat="51.0906" lon="-1.97387">
1606<time>2005-05-02T17:03:32Z</time>
1607</trkpt>
1608<trkpt lat="51.0905" lon="-1.97396">
1609<time>2005-05-02T17:03:36Z</time>
1610</trkpt>
1611<trkpt lat="51.0903" lon="-1.97439">
1612<time>2005-05-02T17:03:55Z</time>
1613</trkpt>
1614<trkpt lat="51.0901" lon="-1.97481">
1615<time>2005-05-02T17:04:19Z</time>
1616</trkpt>
1617<trkpt lat="51.09" lon="-1.97492">
1618<time>2005-05-02T17:04:36Z</time>
1619</trkpt>
1620<trkpt lat="51.0898" lon="-1.97509">
1621<time>2005-05-02T17:04:57Z</time>
1622</trkpt>
1623<trkpt lat="51.0894" lon="-1.97542">
1624<time>2005-05-02T17:05:25Z</time>
1625</trkpt>
1626<trkpt lat="51.0894" lon="-1.97544">
1627<time>2005-05-02T17:05:41Z</time>
1628</trkpt>
1629<trkpt lat="51.0893" lon="-1.97554">
1630<time>2005-05-02T17:05:52Z</time>
1631</trkpt>
1632<trkpt lat="51.089" lon="-1.97576">
1633<time>2005-05-02T17:06:12Z</time>
1634</trkpt>
1635<trkpt lat="51.089" lon="-1.97578">
1636<time>2005-05-02T17:06:36Z</time>
1637</trkpt>
1638<trkpt lat="51.089" lon="-1.9758">
1639<time>2005-05-02T17:07:02Z</time>
1640</trkpt>
1641<trkpt lat="51.0888" lon="-1.97593">
1642<time>2005-05-02T17:07:28Z</time>
1643</trkpt>
1644<trkpt lat="51.0886" lon="-1.9763">
1645<time>2005-05-02T17:07:48Z</time>
1646</trkpt>
1647<trkpt lat="51.0883" lon="-1.97672">
1648<time>2005-05-02T17:08:13Z</time>
1649</trkpt>
1650<trkpt lat="51.0883" lon="-1.97677">
1651<time>2005-05-02T17:08:33Z</time>
1652</trkpt>
1653<trkpt lat="51.0881" lon="-1.97696">
1654<time>2005-05-02T17:09:06Z</time>
1655</trkpt>
1656<trkpt lat="51.0879" lon="-1.97722">
1657<time>2005-05-02T17:09:43Z</time>
1658</trkpt>
1659<trkpt lat="51.0879" lon="-1.97722">
1660<time>2005-05-02T17:09:53Z</time>
1661</trkpt>
1662<trkpt lat="51.0875" lon="-1.97715">
1663<time>2005-05-02T17:10:17Z</time>
1664</trkpt>
1665<trkpt lat="51.0871" lon="-1.97715">
1666<time>2005-05-02T17:10:42Z</time>
1667</trkpt>
1668<trkpt lat="51.0868" lon="-1.97713">
1669<time>2005-05-02T17:11:19Z</time>
1670</trkpt>
1671<trkpt lat="51.0867" lon="-1.97698">
1672<time>2005-05-02T17:11:49Z</time>
1673</trkpt>
1674<trkpt lat="51.0861" lon="-1.97436">
1675<time>2005-05-02T17:13:58Z</time>
1676</trkpt>
1677<trkpt lat="51.0863" lon="-1.97432">
1678<time>2005-05-02T17:14:17Z</time>
1679</trkpt>
1680<trkpt lat="51.0861" lon="-1.97361">
1681<time>2005-05-02T17:14:51Z</time>
1682</trkpt>
1683<trkpt lat="51.0857" lon="-1.97336">
1684<time>2005-05-02T17:15:19Z</time>
1685</trkpt>
1686<trkpt lat="51.0854" lon="-1.97323">
1687<time>2005-05-02T17:15:38Z</time>
1688</trkpt>
1689<trkpt lat="51.0851" lon="-1.9731">
1690<time>2005-05-02T17:15:59Z</time>
1691</trkpt>
1692<trkpt lat="51.0846" lon="-1.97275">
1693<time>2005-05-02T17:16:32Z</time>
1694</trkpt>
1695<trkpt lat="51.0843" lon="-1.97248">
1696<time>2005-05-02T17:16:53Z</time>
1697</trkpt>
1698<trkpt lat="51.0839" lon="-1.97237">
1699<time>2005-05-02T17:17:15Z</time>
1700</trkpt>
1701<trkpt lat="51.0836" lon="-1.97245">
1702<time>2005-05-02T17:17:34Z</time>
1703</trkpt>
1704<trkpt lat="51.0832" lon="-1.9725">
1705<time>2005-05-02T17:17:54Z</time>
1706</trkpt>
1707<trkpt lat="51.0829" lon="-1.97252">
1708<time>2005-05-02T17:18:15Z</time>
1709</trkpt>
1710<trkpt lat="51.0826" lon="-1.97273">
1711<time>2005-05-02T17:18:37Z</time>
1712</trkpt>
1713<trkpt lat="51.0825" lon="-1.9728">
1714<time>2005-05-02T17:18:44Z</time>
1715</trkpt>
1716<trkpt lat="51.0825" lon="-1.97282">
1717<time>2005-05-02T17:18:53Z</time>
1718</trkpt>
1719<trkpt lat="51.0824" lon="-1.9729">
1720<time>2005-05-02T17:18:59Z</time>
1721</trkpt>
1722<trkpt lat="51.0824" lon="-1.97301">
1723<time>2005-05-02T17:19:03Z</time>
1724</trkpt>
1725<trkpt lat="51.0825" lon="-1.97346">
1726<time>2005-05-02T17:19:21Z</time>
1727</trkpt>
1728<trkpt lat="51.0825" lon="-1.97372">
1729<time>2005-05-02T17:19:38Z</time>
1730</trkpt>
1731<trkpt lat="51.0825" lon="-1.97376">
1732<time>2005-05-02T17:20:00Z</time>
1733</trkpt>
1734<trkpt lat="51.0825" lon="-1.97383">
1735<time>2005-05-02T17:20:03Z</time>
1736</trkpt>
1737<trkpt lat="51.0826" lon="-1.97402">
1738<time>2005-05-02T17:20:10Z</time>
1739</trkpt>
1740<trkpt lat="51.0829" lon="-1.97426">
1741<time>2005-05-02T17:20:33Z</time>
1742</trkpt>
1743<trkpt lat="51.0827" lon="-1.97426">
1744<time>2005-05-02T17:23:36Z</time>
1745</trkpt>
1746<trkpt lat="51.0828" lon="-1.97449">
1747<time>2005-05-02T17:24:10Z</time>
1748</trkpt>
1749<trkpt lat="51.0854" lon="-1.97329">
1750<time>2005-05-02T17:40:14Z</time>
1751</trkpt>
1752<trkpt lat="51.0854" lon="-1.97329">
1753<time>2005-05-02T17:40:22Z</time>
1754</trkpt>
1755<trkpt lat="51.0854" lon="-1.97321">
1756<time>2005-05-02T17:40:28Z</time>
1757</trkpt>
1758<trkpt lat="51.0855" lon="-1.97308">
1759<time>2005-05-02T17:40:40Z</time>
1760</trkpt>
1761<trkpt lat="51.0855" lon="-1.97297">
1762<time>2005-05-02T17:40:45Z</time>
1763</trkpt>
1764<trkpt lat="51.0855" lon="-1.97299">
1765<time>2005-05-02T17:40:57Z</time>
1766</trkpt>
1767<trkpt lat="51.0855" lon="-1.97299">
1768<time>2005-05-02T17:41:03Z</time>
1769</trkpt>
1770<trkpt lat="51.0856" lon="-1.97278">
1771<time>2005-05-02T17:41:16Z</time>
1772</trkpt>
1773<trkpt lat="51.0858" lon="-1.97271">
1774<time>2005-05-02T17:41:32Z</time>
1775</trkpt>
1776<trkpt lat="51.0859" lon="-1.97269">
1777<time>2005-05-02T17:41:41Z</time>
1778</trkpt>
1779<trkpt lat="51.0859" lon="-1.97267">
1780<time>2005-05-02T17:42:02Z</time>
1781</trkpt>
1782<trkpt lat="51.0859" lon="-1.97258">
1783<time>2005-05-02T17:42:15Z</time>
1784</trkpt>
1785<trkpt lat="51.086" lon="-1.97248">
1786<time>2005-05-02T17:42:26Z</time>
1787</trkpt>
1788<trkpt lat="51.086" lon="-1.97237">
1789<time>2005-05-02T17:42:31Z</time>
1790</trkpt>
1791<trkpt lat="51.0861" lon="-1.97213">
1792<time>2005-05-02T17:42:48Z</time>
1793</trkpt>
1794<trkpt lat="51.086" lon="-1.97209">
1795<time>2005-05-02T17:42:55Z</time>
1796</trkpt>
1797<trkpt lat="51.086" lon="-1.97213">
1798<time>2005-05-02T17:43:00Z</time>
1799</trkpt>
1800<trkpt lat="51.0859" lon="-1.97243">
1801<time>2005-05-02T17:43:15Z</time>
1802</trkpt>
1803<trkpt lat="51.0859" lon="-1.97254">
1804<time>2005-05-02T17:43:20Z</time>
1805</trkpt>
1806<trkpt lat="51.0859" lon="-1.97271">
1807<time>2005-05-02T17:43:37Z</time>
1808</trkpt>
1809<trkpt lat="51.0859" lon="-1.97271">
1810<time>2005-05-02T17:43:38Z</time>
1811</trkpt>
1812<trkpt lat="51.0858" lon="-1.97248">
1813<time>2005-05-02T17:43:57Z</time>
1814</trkpt>
1815<trkpt lat="51.0859" lon="-1.97207">
1816<time>2005-05-02T17:44:19Z</time>
1817</trkpt>
1818<trkpt lat="51.086" lon="-1.97196">
1819<time>2005-05-02T17:44:39Z</time>
1820</trkpt>
1821<trkpt lat="51.0861" lon="-1.97187">
1822<time>2005-05-02T17:44:52Z</time>
1823</trkpt>
1824<trkpt lat="51.0861" lon="-1.97181">
1825<time>2005-05-02T17:44:56Z</time>
1826</trkpt>
1827<trkpt lat="51.0863" lon="-1.97155">
1828<time>2005-05-02T17:45:14Z</time>
1829</trkpt>
1830<trkpt lat="51.0863" lon="-1.97153">
1831<time>2005-05-02T17:45:16Z</time>
1832</trkpt>
1833<trkpt lat="51.0864" lon="-1.97112">
1834<time>2005-05-02T17:45:38Z</time>
1835</trkpt>
1836<trkpt lat="51.0867" lon="-1.97061">
1837<time>2005-05-02T17:46:04Z</time>
1838</trkpt>
1839<trkpt lat="51.0868" lon="-1.9702">
1840<time>2005-05-02T17:46:24Z</time>
1841</trkpt>
1842<trkpt lat="51.087" lon="-1.96966">
1843<time>2005-05-02T17:46:50Z</time>
1844</trkpt>
1845<trkpt lat="51.0871" lon="-1.96949">
1846<time>2005-05-02T17:47:05Z</time>
1847</trkpt>
1848<trkpt lat="51.0873" lon="-1.96881">
1849<time>2005-05-02T17:47:37Z</time>
1850</trkpt>
1851<trkpt lat="51.0875" lon="-1.96801">
1852<time>2005-05-02T17:48:16Z</time>
1853</trkpt>
1854<trkpt lat="51.0876" lon="-1.96765">
1855<time>2005-05-02T17:48:42Z</time>
1856</trkpt>
1857<trkpt lat="51.0876" lon="-1.96737">
1858<time>2005-05-02T17:49:08Z</time>
1859</trkpt>
1860<trkpt lat="51.0877" lon="-1.96694">
1861<time>2005-05-02T17:49:42Z</time>
1862</trkpt>
1863<trkpt lat="51.0879" lon="-1.96681">
1864<time>2005-05-02T17:50:24Z</time>
1865</trkpt>
1866<trkpt lat="51.0882" lon="-1.96638">
1867<time>2005-05-02T17:51:32Z</time>
1868</trkpt>
1869<trkpt lat="51.0885" lon="-1.96552">
1870<time>2005-05-02T17:52:37Z</time>
1871</trkpt>
1872<trkpt lat="51.0887" lon="-1.96524">
1873<time>2005-05-02T17:52:51Z</time>
1874</trkpt>
1875<trkpt lat="51.089" lon="-1.96447">
1876<time>2005-05-02T17:53:23Z</time>
1877</trkpt>
1878<trkpt lat="51.0892" lon="-1.96357">
1879<time>2005-05-02T17:53:51Z</time>
1880</trkpt>
1881<trkpt lat="51.0895" lon="-1.96331">
1882<time>2005-05-02T17:54:13Z</time>
1883</trkpt>
1884<trkpt lat="51.0894" lon="-1.96318">
1885<time>2005-05-02T17:54:18Z</time>
1886</trkpt>
1887<trkpt lat="51.0896" lon="-1.96316">
1888<time>2005-05-02T17:54:39Z</time>
1889</trkpt>
1890<trkpt lat="51.0896" lon="-1.96308">
1891<time>2005-05-02T17:54:51Z</time>
1892</trkpt>
1893<trkpt lat="51.0901" lon="-1.96269">
1894<time>2005-05-02T17:55:29Z</time>
1895</trkpt>
1896<trkpt lat="51.0904" lon="-1.96245">
1897<time>2005-05-02T17:55:57Z</time>
1898</trkpt>
1899<trkpt lat="51.0903" lon="-1.96207">
1900<time>2005-05-02T17:56:16Z</time>
1901</trkpt>
1902<trkpt lat="51.0903" lon="-1.96185">
1903<time>2005-05-02T17:56:43Z</time>
1904</trkpt>
1905<trkpt lat="51.0901" lon="-1.96155">
1906<time>2005-05-02T17:57:36Z</time>
1907</trkpt>
1908<trkpt lat="51.0899" lon="-1.96142">
1909<time>2005-05-02T17:57:53Z</time>
1910</trkpt>
1911<trkpt lat="51.0896" lon="-1.96102">
1912<time>2005-05-02T17:58:16Z</time>
1913</trkpt>
1914<trkpt lat="51.0895" lon="-1.96076">
1915<time>2005-05-02T17:58:31Z</time>
1916</trkpt>
1917<trkpt lat="51.0895" lon="-1.96078">
1918<time>2005-05-02T17:58:33Z</time>
1919</trkpt>
1920<trkpt lat="51.0898" lon="-1.96121">
1921<time>2005-05-02T17:59:01Z</time>
1922</trkpt>
1923<trkpt lat="51.09" lon="-1.96145">
1924<time>2005-05-02T17:59:15Z</time>
1925</trkpt>
1926<trkpt lat="51.09" lon="-1.96125">
1927<time>2005-05-02T17:59:23Z</time>
1928</trkpt>
1929<trkpt lat="51.0899" lon="-1.96085">
1930<time>2005-05-02T17:59:41Z</time>
1931</trkpt>
1932<trkpt lat="51.0897" lon="-1.96035">
1933<time>2005-05-02T18:00:03Z</time>
1934</trkpt>
1935<trkpt lat="51.0897" lon="-1.96029">
1936<time>2005-05-02T18:00:13Z</time>
1937</trkpt>
1938<trkpt lat="51.0897" lon="-1.96024">
1939<time>2005-05-02T18:00:29Z</time>
1940</trkpt>
1941<trkpt lat="51.0899" lon="-1.96012">
1942<time>2005-05-02T18:01:14Z</time>
1943</trkpt>
1944<trkpt lat="51.09" lon="-1.96001">
1945<time>2005-05-02T18:01:22Z</time>
1946</trkpt>
1947<trkpt lat="51.0903" lon="-1.95986">
1948<time>2005-05-02T18:01:36Z</time>
1949</trkpt>
1950<trkpt lat="51.0905" lon="-1.95979">
1951<time>2005-05-02T18:01:49Z</time>
1952</trkpt>
1953<trkpt lat="51.0908" lon="-1.95967">
1954<time>2005-05-02T18:02:17Z</time>
1955</trkpt>
1956<trkpt lat="51.0911" lon="-1.95941">
1957<time>2005-05-02T18:02:45Z</time>
1958</trkpt>
1959<trkpt lat="51.0915" lon="-1.95937">
1960<time>2005-05-02T18:03:08Z</time>
1961</trkpt>
1962<trkpt lat="51.092" lon="-1.95924">
1963<time>2005-05-02T18:03:41Z</time>
1964</trkpt>
1965<trkpt lat="51.0922" lon="-1.95902">
1966<time>2005-05-02T18:04:01Z</time>
1967</trkpt>
1968<trkpt lat="51.0927" lon="-1.95853">
1969<time>2005-05-02T18:04:35Z</time>
1970</trkpt>
1971<trkpt lat="51.0931" lon="-1.95829">
1972<time>2005-05-02T18:05:01Z</time>
1973</trkpt>
1974<trkpt lat="51.0935" lon="-1.95799">
1975<time>2005-05-02T18:05:28Z</time>
1976</trkpt>
1977<trkpt lat="51.0939" lon="-1.95769">
1978<time>2005-05-02T18:05:58Z</time>
1979</trkpt>
1980<trkpt lat="51.0939" lon="-1.95776">
1981<time>2005-05-02T18:06:27Z</time>
1982</trkpt>
1983<trkpt lat="51.0939" lon="-1.95776">
1984<time>2005-05-02T18:07:50Z</time>
1985</trkpt>
1986<trkpt lat="51.0937" lon="-1.95793">
1987<time>2005-05-02T18:08:10Z</time>
1988</trkpt>
1989<trkpt lat="51.0933" lon="-1.95823">
1990<time>2005-05-02T18:08:37Z</time>
1991</trkpt>
1992<trkpt lat="51.093" lon="-1.95844">
1993<time>2005-05-02T18:08:58Z</time>
1994</trkpt>
1995<trkpt lat="51.0929" lon="-1.95864">
1996<time>2005-05-02T18:09:21Z</time>
1997</trkpt>
1998<trkpt lat="51.0929" lon="-1.95866">
1999<time>2005-05-02T18:09:28Z</time>
2000</trkpt>
2001<trkpt lat="51.093" lon="-1.95864">
2002<time>2005-05-02T18:09:34Z</time>
2003</trkpt>
2004<trkpt lat="51.0929" lon="-1.95864">
2005<time>2005-05-02T18:09:38Z</time>
2006</trkpt>
2007<trkpt lat="51.0926" lon="-1.95879">
2008<time>2005-05-02T18:10:00Z</time>
2009</trkpt>
2010<trkpt lat="51.0923" lon="-1.959">
2011<time>2005-05-02T18:10:21Z</time>
2012</trkpt>
2013<trkpt lat="51.092" lon="-1.95928">
2014<time>2005-05-02T18:10:46Z</time>
2015</trkpt>
2016<trkpt lat="51.0915" lon="-1.95949">
2017<time>2005-05-02T18:11:23Z</time>
2018</trkpt>
2019<trkpt lat="51.0908" lon="-1.95971">
2020<time>2005-05-02T18:12:11Z</time>
2021</trkpt>
2022<trkpt lat="51.0907" lon="-1.95973">
2023<time>2005-05-02T18:12:12Z</time>
2024</trkpt>
2025<trkpt lat="51.0909" lon="-1.95939">
2026<time>2005-05-02T18:12:14Z</time>
2027</trkpt>
2028<trkpt lat="51.0904" lon="-1.95975">
2029<time>2005-05-02T18:12:39Z</time>
2030</trkpt>
2031<trkpt lat="51.09" lon="-1.95986">
2032<time>2005-05-02T18:13:06Z</time>
2033</trkpt>
2034<trkpt lat="51.0897" lon="-1.96018">
2035<time>2005-05-02T18:13:31Z</time>
2036</trkpt>
2037<trkpt lat="51.0894" lon="-1.96039">
2038<time>2005-05-02T18:13:55Z</time>
2039</trkpt>
2040<trkpt lat="51.0889" lon="-1.96149">
2041<time>2005-05-02T18:14:56Z</time>
2042</trkpt>
2043<trkpt lat="51.0889" lon="-1.96194">
2044<time>2005-05-02T18:15:17Z</time>
2045</trkpt>
2046<trkpt lat="51.0888" lon="-1.96239">
2047<time>2005-05-02T18:15:38Z</time>
2048</trkpt>
2049<trkpt lat="51.0887" lon="-1.96278">
2050<time>2005-05-02T18:15:58Z</time>
2051</trkpt>
2052<trkpt lat="51.0884" lon="-1.96286">
2053<time>2005-05-02T18:16:19Z</time>
2054</trkpt>
2055<trkpt lat="51.0881" lon="-1.96278">
2056<time>2005-05-02T18:16:38Z</time>
2057</trkpt>
2058<trkpt lat="51.0878" lon="-1.96261">
2059<time>2005-05-02T18:17:08Z</time>
2060</trkpt>
2061<trkpt lat="51.0874" lon="-1.96239">
2062<time>2005-05-02T18:17:36Z</time>
2063</trkpt>
2064<trkpt lat="51.087" lon="-1.96273">
2065<time>2005-05-02T18:18:07Z</time>
2066</trkpt>
2067<trkpt lat="51.0867" lon="-1.96263">
2068<time>2005-05-02T18:18:23Z</time>
2069</trkpt>
2070<trkpt lat="51.0864" lon="-1.96245">
2071<time>2005-05-02T18:18:48Z</time>
2072</trkpt>
2073<trkpt lat="51.0861" lon="-1.9623">
2074<time>2005-05-02T18:19:10Z</time>
2075</trkpt>
2076<trkpt lat="51.0858" lon="-1.96192">
2077<time>2005-05-02T18:19:33Z</time>
2078</trkpt>
2079<trkpt lat="51.0856" lon="-1.96168">
2080<time>2005-05-02T18:19:56Z</time>
2081</trkpt>
2082<trkpt lat="51.0853" lon="-1.96147">
2083<time>2005-05-02T18:20:18Z</time>
2084</trkpt>
2085<trkpt lat="51.0849" lon="-1.96108">
2086<time>2005-05-02T18:20:49Z</time>
2087</trkpt>
2088<trkpt lat="51.0845" lon="-1.96097">
2089<time>2005-05-02T18:21:16Z</time>
2090</trkpt>
2091<trkpt lat="51.0841" lon="-1.961">
2092<time>2005-05-02T18:21:42Z</time>
2093</trkpt>
2094<trkpt lat="51.0839" lon="-1.96093">
2095<time>2005-05-02T18:22:00Z</time>
2096</trkpt>
2097<trkpt lat="51.0835" lon="-1.96085">
2098<time>2005-05-02T18:22:27Z</time>
2099</trkpt>
2100<trkpt lat="51.0835" lon="-1.96078">
2101<time>2005-05-02T18:23:09Z</time>
2102</trkpt>
2103<trkpt lat="51.0834" lon="-1.96078">
2104<time>2005-05-02T18:23:24Z</time>
2105</trkpt>
2106<trkpt lat="51.0831" lon="-1.96097">
2107<time>2005-05-02T18:23:43Z</time>
2108</trkpt>
2109<trkpt lat="51.0828" lon="-1.9611">
2110<time>2005-05-02T18:24:04Z</time>
2111</trkpt>
2112<trkpt lat="51.0824" lon="-1.96125">
2113<time>2005-05-02T18:24:25Z</time>
2114</trkpt>
2115<trkpt lat="51.0822" lon="-1.9614">
2116<time>2005-05-02T18:24:45Z</time>
2117</trkpt>
2118<trkpt lat="51.0819" lon="-1.96155">
2119<time>2005-05-02T18:25:07Z</time>
2120</trkpt>
2121<trkpt lat="51.0817" lon="-1.96162">
2122<time>2005-05-02T18:25:23Z</time>
2123</trkpt>
2124<trkpt lat="51.0817" lon="-1.96164">
2125<time>2005-05-02T18:25:24Z</time>
2126</trkpt>
2127<trkpt lat="51.0817" lon="-1.96188">
2128<time>2005-05-02T18:25:47Z</time>
2129</trkpt>
2130<trkpt lat="51.0816" lon="-1.96224">
2131<time>2005-05-02T18:26:17Z</time>
2132</trkpt>
2133<trkpt lat="51.0815" lon="-1.96308">
2134<time>2005-05-02T18:26:56Z</time>
2135</trkpt>
2136<trkpt lat="51.0815" lon="-1.96348">
2137<time>2005-05-02T18:27:23Z</time>
2138</trkpt>
2139<trkpt lat="51.0816" lon="-1.96434">
2140<time>2005-05-02T18:28:09Z</time>
2141</trkpt>
2142<trkpt lat="51.0818" lon="-1.96524">
2143<time>2005-05-02T18:28:48Z</time>
2144</trkpt>
2145<trkpt lat="51.0818" lon="-1.96546">
2146<time>2005-05-02T18:28:57Z</time>
2147</trkpt>
2148<trkpt lat="51.0819" lon="-1.9657">
2149<time>2005-05-02T18:29:11Z</time>
2150</trkpt>
2151<trkpt lat="51.0819" lon="-1.96623">
2152<time>2005-05-02T18:29:34Z</time>
2153</trkpt>
2154<trkpt lat="51.082" lon="-1.96679">
2155<time>2005-05-02T18:29:58Z</time>
2156</trkpt>
2157<trkpt lat="51.082" lon="-1.96735">
2158<time>2005-05-02T18:30:22Z</time>
2159</trkpt>
2160<trkpt lat="51.082" lon="-1.96754">
2161<time>2005-05-02T18:30:31Z</time>
2162</trkpt>
2163<trkpt lat="51.082" lon="-1.96763">
2164<time>2005-05-02T18:30:34Z</time>
2165</trkpt>
2166<trkpt lat="51.082" lon="-1.96769">
2167<time>2005-05-02T18:30:38Z</time>
2168</trkpt>
2169<trkpt lat="51.082" lon="-1.9678">
2170<time>2005-05-02T18:30:43Z</time>
2171</trkpt>
2172<trkpt lat="51.0821" lon="-1.96801">
2173<time>2005-05-02T18:30:54Z</time>
2174</trkpt>
2175<trkpt lat="51.0821" lon="-1.96838">
2176<time>2005-05-02T18:31:10Z</time>
2177</trkpt>
2178<trkpt lat="51.0821" lon="-1.96868">
2179<time>2005-05-02T18:31:24Z</time>
2180</trkpt>
2181<trkpt lat="51.0821" lon="-1.96883">
2182<time>2005-05-02T18:31:38Z</time>
2183</trkpt>
2184<trkpt lat="51.0821" lon="-1.96885">
2185<time>2005-05-02T18:31:58Z</time>
2186</trkpt>
2187<trkpt lat="51.0822" lon="-1.96921">
2188<time>2005-05-02T18:32:14Z</time>
2189</trkpt>
2190<trkpt lat="51.0823" lon="-1.96986">
2191<time>2005-05-02T18:32:42Z</time>
2192</trkpt>
2193<trkpt lat="51.0823" lon="-1.96999">
2194<time>2005-05-02T18:32:57Z</time>
2195</trkpt>
2196<trkpt lat="51.0823" lon="-1.97033">
2197<time>2005-05-02T18:33:15Z</time>
2198</trkpt>
2199<trkpt lat="51.0823" lon="-1.97074">
2200<time>2005-05-02T18:33:33Z</time>
2201</trkpt>
2202<trkpt lat="51.0823" lon="-1.97119">
2203<time>2005-05-02T18:33:54Z</time>
2204</trkpt>
2205<trkpt lat="51.0824" lon="-1.97164">
2206<time>2005-05-02T18:34:13Z</time>
2207</trkpt>
2208<trkpt lat="51.0824" lon="-1.97172">
2209<time>2005-05-02T18:34:20Z</time>
2210</trkpt>
2211<trkpt lat="51.0824" lon="-1.97181">
2212<time>2005-05-02T18:34:25Z</time>
2213</trkpt>
2214<trkpt lat="51.0825" lon="-1.97228">
2215<time>2005-05-02T18:34:48Z</time>
2216</trkpt>
2217<trkpt lat="51.0825" lon="-1.9725">
2218<time>2005-05-02T18:34:59Z</time>
2219</trkpt>
2220<trkpt lat="51.0824" lon="-1.9729">
2221<time>2005-05-02T18:35:17Z</time>
2222</trkpt>
2223<trkpt lat="51.0825" lon="-1.97348">
2224<time>2005-05-02T18:35:41Z</time>
2225</trkpt>
2226<trkpt lat="51.0825" lon="-1.97398">
2227<time>2005-05-02T18:36:04Z</time>
2228</trkpt>
2229<trkpt lat="51.0825" lon="-1.97411">
2230<time>2005-05-02T18:36:10Z</time>
2231</trkpt>
2232<trkpt lat="51.0825" lon="-1.97413">
2233<time>2005-05-02T18:36:12Z</time>
2234</trkpt>
2235<trkpt lat="51.0825" lon="-1.97443">
2236<time>2005-05-02T18:36:29Z</time>
2237</trkpt>
2238<trkpt lat="51.0826" lon="-1.97479">
2239<time>2005-05-02T18:36:46Z</time>
2240</trkpt>
2241<trkpt lat="51.0826" lon="-1.97524">
2242<time>2005-05-02T18:37:07Z</time>
2243</trkpt>
2244<trkpt lat="51.0826" lon="-1.97569">
2245<time>2005-05-02T18:37:29Z</time>
2246</trkpt>
2247<trkpt lat="51.0827" lon="-1.97608">
2248<time>2005-05-02T18:37:48Z</time>
2249</trkpt>
2250<trkpt lat="51.0828" lon="-1.97664">
2251<time>2005-05-02T18:38:12Z</time>
2252</trkpt>
2253<trkpt lat="51.083" lon="-1.97748">
2254<time>2005-05-02T18:38:52Z</time>
2255</trkpt>
2256<trkpt lat="51.083" lon="-1.97795">
2257<time>2005-05-02T18:39:13Z</time>
2258</trkpt>
2259<trkpt lat="51.0831" lon="-1.97833">
2260<time>2005-05-02T18:39:31Z</time>
2261</trkpt>
2262<trkpt lat="51.0831" lon="-1.9787">
2263<time>2005-05-02T18:39:48Z</time>
2264</trkpt>
2265<trkpt lat="51.0831" lon="-1.97906">
2266<time>2005-05-02T18:40:05Z</time>
2267</trkpt>
2268<trkpt lat="51.0832" lon="-1.97913">
2269<time>2005-05-02T18:40:08Z</time>
2270</trkpt>
2271<trkpt lat="51.0831" lon="-1.97923">
2272<time>2005-05-02T18:40:14Z</time>
2273</trkpt>
2274<trkpt lat="51.0832" lon="-1.97939">
2275<time>2005-05-02T18:40:20Z</time>
2276</trkpt>
2277<trkpt lat="51.0832" lon="-1.97994">
2278<time>2005-05-02T18:40:42Z</time>
2279</trkpt>
2280<trkpt lat="51.0832" lon="-1.98041">
2281<time>2005-05-02T18:41:04Z</time>
2282</trkpt>
2283<trkpt lat="51.0832" lon="-1.98057">
2284<time>2005-05-02T18:41:12Z</time>
2285</trkpt>
2286<trkpt lat="51.0832" lon="-1.98063">
2287<time>2005-05-02T18:41:16Z</time>
2288</trkpt>
2289<trkpt lat="51.0834" lon="-1.98102">
2290<time>2005-05-02T18:41:39Z</time>
2291</trkpt>
2292<trkpt lat="51.0835" lon="-1.98136">
2293<time>2005-05-02T18:41:59Z</time>
2294</trkpt>
2295<trkpt lat="51.0835" lon="-1.98147">
2296<time>2005-05-02T18:42:18Z</time>
2297</trkpt>
2298<trkpt lat="51.0838" lon="-1.98224">
2299<time>2005-05-02T18:42:59Z</time>
2300</trkpt>
2301<trkpt lat="51.0838" lon="-1.98271">
2302<time>2005-05-02T18:43:21Z</time>
2303</trkpt>
2304<trkpt lat="51.0838" lon="-1.98316">
2305<time>2005-05-02T18:43:43Z</time>
2306</trkpt>
2307<trkpt lat="51.0838" lon="-1.984">
2308<time>2005-05-02T18:44:20Z</time>
2309</trkpt>
2310<trkpt lat="51.0836" lon="-1.98501">
2311<time>2005-05-02T18:45:01Z</time>
2312</trkpt>
2313<trkpt lat="51.0837" lon="-1.98572">
2314<time>2005-05-02T18:45:35Z</time>
2315</trkpt>
2316<trkpt lat="51.0837" lon="-1.98587">
2317<time>2005-05-02T18:45:51Z</time>
2318</trkpt>
2319<trkpt lat="51.0838" lon="-1.98602">
2320<time>2005-05-02T18:46:00Z</time>
2321</trkpt>
2322<trkpt lat="51.0838" lon="-1.98625">
2323<time>2005-05-02T18:46:15Z</time>
2324</trkpt>
2325<trkpt lat="51.0839" lon="-1.98653">
2326<time>2005-05-02T18:46:31Z</time>
2327</trkpt>
2328<trkpt lat="51.0839" lon="-1.98685">
2329<time>2005-05-02T18:46:50Z</time>
2330</trkpt>
2331<trkpt lat="51.0839" lon="-1.98707">
2332<time>2005-05-02T18:47:05Z</time>
2333</trkpt>
2334<trkpt lat="51.0838" lon="-1.98715">
2335<time>2005-05-02T18:47:18Z</time>
2336</trkpt>
2337<trkpt lat="51.0837" lon="-1.98722">
2338<time>2005-05-02T18:47:22Z</time>
2339</trkpt>
2340</trkseg>
2341</trk>
2342</gpx>
Note: See TracBrowser for help on using the repository browser.